<?xml version="1.0" encoding="UTF-8" standalone="no" ?>
<gpx xmlns="http://www.topografix.com/GPX/1/1" xmlns:xsi="http://www.w3.org/2001/XMLSchema-instance" xsi:schemaLocation="http://www.topografix.com/GPX/1/1 http://www.topografix.com/GPX/1/1/gpx.xsd" version="1.1" creator="VisuGPX - https://www.visugpx.com">
  <metadata>
    <name>Granvoir 02 MARCHE ADEPS 2018 (Fev)</name>
    <desc><![CDATA[Marche ADEPS sympa a faire entre amis évité les d'jones ]]></desc>
  </metadata>
  <trk>
    <name><![CDATA[Scooby et David ]]></name>
    <trkseg>
      <trkpt lat="49.85828" lon="5.37255">
        <ele>349</ele>
        <time>2018-02-04T09:29:08Z</time>
      </trkpt>
      <trkpt lat="49.85828" lon="5.37242">
        <ele>350</ele>
        <time>2018-02-04T09:29:18Z</time>
      </trkpt>
      <trkpt lat="49.85829" lon="5.37227">
        <ele>352</ele>
        <time>2018-02-04T09:29:28Z</time>
      </trkpt>
      <trkpt lat="49.85826" lon="5.37212">
        <ele>354</ele>
        <time>2018-02-04T09:29:38Z</time>
      </trkpt>
      <trkpt lat="49.85823" lon="5.372">
        <ele>354</ele>
        <time>2018-02-04T09:29:48Z</time>
      </trkpt>
      <trkpt lat="49.85818" lon="5.37181">
        <ele>357</ele>
        <time>2018-02-04T09:29:59Z</time>
      </trkpt>
      <trkpt lat="49.85812" lon="5.37162">
        <ele>358</ele>
        <time>2018-02-04T09:30:10Z</time>
      </trkpt>
      <trkpt lat="49.85808" lon="5.37142">
        <ele>360</ele>
        <time>2018-02-04T09:30:21Z</time>
      </trkpt>
      <trkpt lat="49.85803" lon="5.37123">
        <ele>362</ele>
        <time>2018-02-04T09:30:31Z</time>
      </trkpt>
      <trkpt lat="49.85799" lon="5.37104">
        <ele>364</ele>
        <time>2018-02-04T09:30:42Z</time>
      </trkpt>
      <trkpt lat="49.85796" lon="5.37086">
        <ele>365</ele>
        <time>2018-02-04T09:30:52Z</time>
      </trkpt>
      <trkpt lat="49.85793" lon="5.37067">
        <ele>366</ele>
        <time>2018-02-04T09:31:03Z</time>
      </trkpt>
      <trkpt lat="49.85791" lon="5.37049">
        <ele>369</ele>
        <time>2018-02-04T09:31:14Z</time>
      </trkpt>
      <trkpt lat="49.85789" lon="5.37031">
        <ele>370</ele>
        <time>2018-02-04T09:31:24Z</time>
      </trkpt>
      <trkpt lat="49.85787" lon="5.37007">
        <ele>371</ele>
        <time>2018-02-04T09:31:35Z</time>
      </trkpt>
      <trkpt lat="49.85786" lon="5.36989">
        <ele>373</ele>
        <time>2018-02-04T09:31:46Z</time>
      </trkpt>
      <trkpt lat="49.85785" lon="5.36971">
        <ele>375</ele>
        <time>2018-02-04T09:31:56Z</time>
      </trkpt>
      <trkpt lat="49.85786" lon="5.36949">
        <ele>376</ele>
        <time>2018-02-04T09:32:07Z</time>
      </trkpt>
      <trkpt lat="49.85788" lon="5.3693">
        <ele>377</ele>
        <time>2018-02-04T09:32:17Z</time>
      </trkpt>
      <trkpt lat="49.8579" lon="5.36909">
        <ele>379</ele>
        <time>2018-02-04T09:32:28Z</time>
      </trkpt>
      <trkpt lat="49.8579" lon="5.36889">
        <ele>378</ele>
        <time>2018-02-04T09:32:38Z</time>
      </trkpt>
      <trkpt lat="49.85792" lon="5.36866">
        <ele>378</ele>
        <time>2018-02-04T09:32:49Z</time>
      </trkpt>
      <trkpt lat="49.85803" lon="5.36857">
        <ele>378</ele>
        <time>2018-02-04T09:33:00Z</time>
      </trkpt>
      <trkpt lat="49.85814" lon="5.36861">
        <ele>378</ele>
        <time>2018-02-04T09:33:10Z</time>
      </trkpt>
      <trkpt lat="49.85825" lon="5.36868">
        <ele>379</ele>
        <time>2018-02-04T09:33:20Z</time>
      </trkpt>
      <trkpt lat="49.85836" lon="5.36873">
        <ele>379</ele>
        <time>2018-02-04T09:33:30Z</time>
      </trkpt>
      <trkpt lat="49.85849" lon="5.3688">
        <ele>380</ele>
        <time>2018-02-04T09:33:41Z</time>
      </trkpt>
      <trkpt lat="49.85862" lon="5.36887">
        <ele>381</ele>
        <time>2018-02-04T09:33:52Z</time>
      </trkpt>
      <trkpt lat="49.85875" lon="5.36892">
        <ele>381</ele>
        <time>2018-02-04T09:34:02Z</time>
      </trkpt>
      <trkpt lat="49.85888" lon="5.36899">
        <ele>381</ele>
        <time>2018-02-04T09:34:13Z</time>
      </trkpt>
      <trkpt lat="49.85899" lon="5.36905">
        <ele>380</ele>
        <time>2018-02-04T09:34:23Z</time>
      </trkpt>
      <trkpt lat="49.85912" lon="5.36913">
        <ele>380</ele>
        <time>2018-02-04T09:34:34Z</time>
      </trkpt>
      <trkpt lat="49.85925" lon="5.36922">
        <ele>380</ele>
        <time>2018-02-04T09:34:45Z</time>
      </trkpt>
      <trkpt lat="49.85938" lon="5.3693">
        <ele>380</ele>
        <time>2018-02-04T09:34:56Z</time>
      </trkpt>
      <trkpt lat="49.8595" lon="5.36938">
        <ele>381</ele>
        <time>2018-02-04T09:35:06Z</time>
      </trkpt>
      <trkpt lat="49.85963" lon="5.36945">
        <ele>381</ele>
        <time>2018-02-04T09:35:16Z</time>
      </trkpt>
      <trkpt lat="49.85975" lon="5.36955">
        <ele>382</ele>
        <time>2018-02-04T09:35:27Z</time>
      </trkpt>
      <trkpt lat="49.85987" lon="5.36963">
        <ele>382</ele>
        <time>2018-02-04T09:35:37Z</time>
      </trkpt>
      <trkpt lat="49.86001" lon="5.3697">
        <ele>382</ele>
        <time>2018-02-04T09:35:48Z</time>
      </trkpt>
      <trkpt lat="49.86015" lon="5.36975">
        <ele>382</ele>
        <time>2018-02-04T09:35:59Z</time>
      </trkpt>
      <trkpt lat="49.86029" lon="5.36979">
        <ele>383</ele>
        <time>2018-02-04T09:36:10Z</time>
      </trkpt>
      <trkpt lat="49.86041" lon="5.36982">
        <ele>382</ele>
        <time>2018-02-04T09:36:20Z</time>
      </trkpt>
      <trkpt lat="49.86055" lon="5.36986">
        <ele>382</ele>
        <time>2018-02-04T09:36:31Z</time>
      </trkpt>
      <trkpt lat="49.86069" lon="5.36989">
        <ele>383</ele>
        <time>2018-02-04T09:36:42Z</time>
      </trkpt>
      <trkpt lat="49.86082" lon="5.36992">
        <ele>382</ele>
        <time>2018-02-04T09:36:53Z</time>
      </trkpt>
      <trkpt lat="49.86095" lon="5.36995">
        <ele>383</ele>
        <time>2018-02-04T09:37:03Z</time>
      </trkpt>
      <trkpt lat="49.86106" lon="5.36997">
        <ele>383</ele>
        <time>2018-02-04T09:37:14Z</time>
      </trkpt>
      <trkpt lat="49.8612" lon="5.37">
        <ele>384</ele>
        <time>2018-02-04T09:37:25Z</time>
      </trkpt>
      <trkpt lat="49.86134" lon="5.37002">
        <ele>383</ele>
        <time>2018-02-04T09:37:36Z</time>
      </trkpt>
      <trkpt lat="49.86146" lon="5.37004">
        <ele>383</ele>
        <time>2018-02-04T09:37:46Z</time>
      </trkpt>
      <trkpt lat="49.8616" lon="5.37005">
        <ele>384</ele>
        <time>2018-02-04T09:37:57Z</time>
      </trkpt>
      <trkpt lat="49.86174" lon="5.37006">
        <ele>386</ele>
        <time>2018-02-04T09:38:08Z</time>
      </trkpt>
      <trkpt lat="49.86187" lon="5.37006">
        <ele>386</ele>
        <time>2018-02-04T09:38:19Z</time>
      </trkpt>
      <trkpt lat="49.862" lon="5.37005">
        <ele>387</ele>
        <time>2018-02-04T09:38:29Z</time>
      </trkpt>
      <trkpt lat="49.86214" lon="5.37004">
        <ele>388</ele>
        <time>2018-02-04T09:38:40Z</time>
      </trkpt>
      <trkpt lat="49.86227" lon="5.37004">
        <ele>389</ele>
        <time>2018-02-04T09:38:51Z</time>
      </trkpt>
      <trkpt lat="49.86241" lon="5.37005">
        <ele>389</ele>
        <time>2018-02-04T09:39:02Z</time>
      </trkpt>
      <trkpt lat="49.86254" lon="5.37007">
        <ele>389</ele>
        <time>2018-02-04T09:39:12Z</time>
      </trkpt>
      <trkpt lat="49.86267" lon="5.3701">
        <ele>390</ele>
        <time>2018-02-04T09:39:23Z</time>
      </trkpt>
      <trkpt lat="49.86279" lon="5.37015">
        <ele>391</ele>
        <time>2018-02-04T09:39:33Z</time>
      </trkpt>
      <trkpt lat="49.86292" lon="5.3702">
        <ele>390</ele>
        <time>2018-02-04T09:39:44Z</time>
      </trkpt>
      <trkpt lat="49.86305" lon="5.37026">
        <ele>390</ele>
        <time>2018-02-04T09:39:55Z</time>
      </trkpt>
      <trkpt lat="49.86317" lon="5.37032">
        <ele>390</ele>
        <time>2018-02-04T09:40:05Z</time>
      </trkpt>
      <trkpt lat="49.86331" lon="5.37039">
        <ele>391</ele>
        <time>2018-02-04T09:40:16Z</time>
      </trkpt>
      <trkpt lat="49.8634" lon="5.37044">
        <ele>392</ele>
        <time>2018-02-04T09:40:27Z</time>
      </trkpt>
      <trkpt lat="49.86352" lon="5.37052">
        <ele>391</ele>
        <time>2018-02-04T09:40:38Z</time>
      </trkpt>
      <trkpt lat="49.86364" lon="5.37062">
        <ele>392</ele>
        <time>2018-02-04T09:40:49Z</time>
      </trkpt>
      <trkpt lat="49.86373" lon="5.37072">
        <ele>391</ele>
        <time>2018-02-04T09:40:59Z</time>
      </trkpt>
      <trkpt lat="49.8638" lon="5.3708">
        <ele>391</ele>
        <time>2018-02-04T09:41:09Z</time>
      </trkpt>
      <trkpt lat="49.86391" lon="5.3709">
        <ele>390</ele>
        <time>2018-02-04T09:41:20Z</time>
      </trkpt>
      <trkpt lat="49.86402" lon="5.37098">
        <ele>389</ele>
        <time>2018-02-04T09:41:30Z</time>
      </trkpt>
      <trkpt lat="49.86413" lon="5.37105">
        <ele>389</ele>
        <time>2018-02-04T09:41:40Z</time>
      </trkpt>
      <trkpt lat="49.86424" lon="5.37111">
        <ele>387</ele>
        <time>2018-02-04T09:41:50Z</time>
      </trkpt>
      <trkpt lat="49.86434" lon="5.37101">
        <ele>388</ele>
        <time>2018-02-04T09:42:01Z</time>
      </trkpt>
      <trkpt lat="49.86443" lon="5.3709">
        <ele>389</ele>
        <time>2018-02-04T09:42:11Z</time>
      </trkpt>
      <trkpt lat="49.86452" lon="5.37078">
        <ele>391</ele>
        <time>2018-02-04T09:42:22Z</time>
      </trkpt>
      <trkpt lat="49.8646" lon="5.37068">
        <ele>392</ele>
        <time>2018-02-04T09:42:32Z</time>
      </trkpt>
      <trkpt lat="49.86469" lon="5.37056">
        <ele>393</ele>
        <time>2018-02-04T09:42:43Z</time>
      </trkpt>
      <trkpt lat="49.86478" lon="5.37046">
        <ele>393</ele>
        <time>2018-02-04T09:42:54Z</time>
      </trkpt>
      <trkpt lat="49.86487" lon="5.37035">
        <ele>395</ele>
        <time>2018-02-04T09:43:04Z</time>
      </trkpt>
      <trkpt lat="49.86497" lon="5.37023">
        <ele>396</ele>
        <time>2018-02-04T09:43:15Z</time>
      </trkpt>
      <trkpt lat="49.86507" lon="5.37011">
        <ele>397</ele>
        <time>2018-02-04T09:43:26Z</time>
      </trkpt>
      <trkpt lat="49.86518" lon="5.36997">
        <ele>398</ele>
        <time>2018-02-04T09:43:37Z</time>
      </trkpt>
      <trkpt lat="49.86528" lon="5.36985">
        <ele>399</ele>
        <time>2018-02-04T09:43:47Z</time>
      </trkpt>
      <trkpt lat="49.86538" lon="5.36973">
        <ele>398</ele>
        <time>2018-02-04T09:43:57Z</time>
      </trkpt>
      <trkpt lat="49.86549" lon="5.36959">
        <ele>397</ele>
        <time>2018-02-04T09:44:08Z</time>
      </trkpt>
      <trkpt lat="49.86558" lon="5.36945">
        <ele>398</ele>
        <time>2018-02-04T09:44:18Z</time>
      </trkpt>
      <trkpt lat="49.86568" lon="5.36931">
        <ele>397</ele>
        <time>2018-02-04T09:44:29Z</time>
      </trkpt>
      <trkpt lat="49.86578" lon="5.36916">
        <ele>398</ele>
        <time>2018-02-04T09:44:39Z</time>
      </trkpt>
      <trkpt lat="49.86587" lon="5.36903">
        <ele>397</ele>
        <time>2018-02-04T09:44:49Z</time>
      </trkpt>
      <trkpt lat="49.86594" lon="5.36889">
        <ele>398</ele>
        <time>2018-02-04T09:44:59Z</time>
      </trkpt>
      <trkpt lat="49.86604" lon="5.3688">
        <ele>398</ele>
        <time>2018-02-04T09:45:09Z</time>
      </trkpt>
      <trkpt lat="49.86617" lon="5.36877">
        <ele>399</ele>
        <time>2018-02-04T09:45:20Z</time>
      </trkpt>
      <trkpt lat="49.86622" lon="5.36876">
        <ele>398</ele>
        <time>2018-02-04T09:45:30Z</time>
      </trkpt>
      <trkpt lat="49.86623" lon="5.36875">
        <ele>399</ele>
        <time>2018-02-04T09:45:40Z</time>
      </trkpt>
      <trkpt lat="49.86629" lon="5.36873">
        <ele>398</ele>
        <time>2018-02-04T09:45:51Z</time>
      </trkpt>
      <trkpt lat="49.86639" lon="5.36872">
        <ele>400</ele>
        <time>2018-02-04T09:46:01Z</time>
      </trkpt>
      <trkpt lat="49.86651" lon="5.36871">
        <ele>399</ele>
        <time>2018-02-04T09:46:11Z</time>
      </trkpt>
      <trkpt lat="49.86663" lon="5.3687">
        <ele>399</ele>
        <time>2018-02-04T09:46:22Z</time>
      </trkpt>
      <trkpt lat="49.8667" lon="5.3687">
        <ele>400</ele>
        <time>2018-02-04T09:46:32Z</time>
      </trkpt>
      <trkpt lat="49.86682" lon="5.36869">
        <ele>401</ele>
        <time>2018-02-04T09:46:43Z</time>
      </trkpt>
      <trkpt lat="49.86693" lon="5.36867">
        <ele>401</ele>
        <time>2018-02-04T09:46:53Z</time>
      </trkpt>
      <trkpt lat="49.86703" lon="5.36864">
        <ele>402</ele>
        <time>2018-02-04T09:47:03Z</time>
      </trkpt>
      <trkpt lat="49.86714" lon="5.3686">
        <ele>403</ele>
        <time>2018-02-04T09:47:14Z</time>
      </trkpt>
      <trkpt lat="49.86724" lon="5.3686">
        <ele>404</ele>
        <time>2018-02-04T09:47:24Z</time>
      </trkpt>
      <trkpt lat="49.86735" lon="5.36859">
        <ele>404</ele>
        <time>2018-02-04T09:47:34Z</time>
      </trkpt>
      <trkpt lat="49.86747" lon="5.36859">
        <ele>404</ele>
        <time>2018-02-04T09:47:45Z</time>
      </trkpt>
      <trkpt lat="49.86758" lon="5.3686">
        <ele>405</ele>
        <time>2018-02-04T09:47:56Z</time>
      </trkpt>
      <trkpt lat="49.8677" lon="5.36861">
        <ele>406</ele>
        <time>2018-02-04T09:48:07Z</time>
      </trkpt>
      <trkpt lat="49.86776" lon="5.36863">
        <ele>406</ele>
        <time>2018-02-04T09:48:18Z</time>
      </trkpt>
      <trkpt lat="49.86777" lon="5.36863">
        <ele>406</ele>
        <time>2018-02-04T09:48:30Z</time>
      </trkpt>
      <trkpt lat="49.86783" lon="5.36864">
        <ele>407</ele>
        <time>2018-02-04T09:48:40Z</time>
      </trkpt>
      <trkpt lat="49.86792" lon="5.36866">
        <ele>406</ele>
        <time>2018-02-04T09:48:50Z</time>
      </trkpt>
      <trkpt lat="49.86803" lon="5.3687">
        <ele>407</ele>
        <time>2018-02-04T09:49:00Z</time>
      </trkpt>
      <trkpt lat="49.86812" lon="5.36873">
        <ele>408</ele>
        <time>2018-02-04T09:49:10Z</time>
      </trkpt>
      <trkpt lat="49.86824" lon="5.36875">
        <ele>408</ele>
        <time>2018-02-04T09:49:21Z</time>
      </trkpt>
      <trkpt lat="49.86834" lon="5.36878">
        <ele>409</ele>
        <time>2018-02-04T09:49:31Z</time>
      </trkpt>
      <trkpt lat="49.86845" lon="5.3688">
        <ele>409</ele>
        <time>2018-02-04T09:49:41Z</time>
      </trkpt>
      <trkpt lat="49.86855" lon="5.36883">
        <ele>410</ele>
        <time>2018-02-04T09:49:51Z</time>
      </trkpt>
      <trkpt lat="49.86859" lon="5.36884">
        <ele>410</ele>
        <time>2018-02-04T09:50:02Z</time>
      </trkpt>
      <trkpt lat="49.8686" lon="5.36884">
        <ele>409</ele>
        <time>2018-02-04T09:50:13Z</time>
      </trkpt>
      <trkpt lat="49.86861" lon="5.36884">
        <ele>410</ele>
        <time>2018-02-04T09:50:24Z</time>
      </trkpt>
      <trkpt lat="49.8687" lon="5.36887">
        <ele>410</ele>
        <time>2018-02-04T09:50:34Z</time>
      </trkpt>
      <trkpt lat="49.86881" lon="5.36891">
        <ele>410</ele>
        <time>2018-02-04T09:50:45Z</time>
      </trkpt>
      <trkpt lat="49.86892" lon="5.36895">
        <ele>410</ele>
        <time>2018-02-04T09:50:56Z</time>
      </trkpt>
      <trkpt lat="49.86901" lon="5.36899">
        <ele>411</ele>
        <time>2018-02-04T09:51:06Z</time>
      </trkpt>
      <trkpt lat="49.8691" lon="5.36904">
        <ele>411</ele>
        <time>2018-02-04T09:51:17Z</time>
      </trkpt>
      <trkpt lat="49.86919" lon="5.36908">
        <ele>412</ele>
        <time>2018-02-04T09:51:27Z</time>
      </trkpt>
      <trkpt lat="49.8693" lon="5.36909">
        <ele>412</ele>
        <time>2018-02-04T09:51:37Z</time>
      </trkpt>
      <trkpt lat="49.86941" lon="5.36913">
        <ele>413</ele>
        <time>2018-02-04T09:51:48Z</time>
      </trkpt>
      <trkpt lat="49.8695" lon="5.36916">
        <ele>413</ele>
        <time>2018-02-04T09:51:58Z</time>
      </trkpt>
      <trkpt lat="49.86951" lon="5.36917">
        <ele>414</ele>
        <time>2018-02-04T09:52:09Z</time>
      </trkpt>
      <trkpt lat="49.86951" lon="5.36917">
        <ele>413</ele>
        <time>2018-02-04T09:52:19Z</time>
      </trkpt>
      <trkpt lat="49.86956" lon="5.36919">
        <ele>413</ele>
        <time>2018-02-04T09:52:30Z</time>
      </trkpt>
      <trkpt lat="49.86966" lon="5.36922">
        <ele>413</ele>
        <time>2018-02-04T09:52:41Z</time>
      </trkpt>
      <trkpt lat="49.86977" lon="5.36923">
        <ele>414</ele>
        <time>2018-02-04T09:52:52Z</time>
      </trkpt>
      <trkpt lat="49.86987" lon="5.36926">
        <ele>414</ele>
        <time>2018-02-04T09:53:02Z</time>
      </trkpt>
      <trkpt lat="49.86993" lon="5.36933">
        <ele>415</ele>
        <time>2018-02-04T09:53:13Z</time>
      </trkpt>
      <trkpt lat="49.86995" lon="5.36933">
        <ele>415</ele>
        <time>2018-02-04T09:53:24Z</time>
      </trkpt>
      <trkpt lat="49.86996" lon="5.36933">
        <ele>414</ele>
        <time>2018-02-04T09:53:35Z</time>
      </trkpt>
      <trkpt lat="49.87" lon="5.36935">
        <ele>415</ele>
        <time>2018-02-04T09:53:45Z</time>
      </trkpt>
      <trkpt lat="49.87011" lon="5.36932">
        <ele>415</ele>
        <time>2018-02-04T09:53:55Z</time>
      </trkpt>
      <trkpt lat="49.87022" lon="5.36929">
        <ele>415</ele>
        <time>2018-02-04T09:54:05Z</time>
      </trkpt>
      <trkpt lat="49.87035" lon="5.36926">
        <ele>415</ele>
        <time>2018-02-04T09:54:16Z</time>
      </trkpt>
      <trkpt lat="49.87048" lon="5.36923">
        <ele>416</ele>
        <time>2018-02-04T09:54:27Z</time>
      </trkpt>
      <trkpt lat="49.8706" lon="5.3692">
        <ele>416</ele>
        <time>2018-02-04T09:54:37Z</time>
      </trkpt>
      <trkpt lat="49.87072" lon="5.36917">
        <ele>416</ele>
        <time>2018-02-04T09:54:48Z</time>
      </trkpt>
      <trkpt lat="49.87082" lon="5.36915">
        <ele>415</ele>
        <time>2018-02-04T09:54:58Z</time>
      </trkpt>
      <trkpt lat="49.87094" lon="5.36912">
        <ele>416</ele>
        <time>2018-02-04T09:55:09Z</time>
      </trkpt>
      <trkpt lat="49.871" lon="5.36902">
        <ele>416</ele>
        <time>2018-02-04T09:55:19Z</time>
      </trkpt>
      <trkpt lat="49.87096" lon="5.36887">
        <ele>416</ele>
        <time>2018-02-04T09:55:29Z</time>
      </trkpt>
      <trkpt lat="49.87091" lon="5.36873">
        <ele>416</ele>
        <time>2018-02-04T09:55:39Z</time>
      </trkpt>
      <trkpt lat="49.87086" lon="5.36858">
        <ele>415</ele>
        <time>2018-02-04T09:55:50Z</time>
      </trkpt>
      <trkpt lat="49.87081" lon="5.36841">
        <ele>414</ele>
        <time>2018-02-04T09:56:01Z</time>
      </trkpt>
      <trkpt lat="49.87076" lon="5.36826">
        <ele>413</ele>
        <time>2018-02-04T09:56:11Z</time>
      </trkpt>
      <trkpt lat="49.87072" lon="5.36808">
        <ele>413</ele>
        <time>2018-02-04T09:56:22Z</time>
      </trkpt>
      <trkpt lat="49.87069" lon="5.36791">
        <ele>413</ele>
        <time>2018-02-04T09:56:32Z</time>
      </trkpt>
      <trkpt lat="49.87067" lon="5.3677">
        <ele>411</ele>
        <time>2018-02-04T09:56:43Z</time>
      </trkpt>
      <trkpt lat="49.87066" lon="5.36753">
        <ele>410</ele>
        <time>2018-02-04T09:56:53Z</time>
      </trkpt>
      <trkpt lat="49.87064" lon="5.36735">
        <ele>408</ele>
        <time>2018-02-04T09:57:03Z</time>
      </trkpt>
      <trkpt lat="49.87061" lon="5.36717">
        <ele>407</ele>
        <time>2018-02-04T09:57:14Z</time>
      </trkpt>
      <trkpt lat="49.87059" lon="5.36701">
        <ele>406</ele>
        <time>2018-02-04T09:57:24Z</time>
      </trkpt>
      <trkpt lat="49.87057" lon="5.36683">
        <ele>406</ele>
        <time>2018-02-04T09:57:34Z</time>
      </trkpt>
      <trkpt lat="49.87054" lon="5.36666">
        <ele>405</ele>
        <time>2018-02-04T09:57:44Z</time>
      </trkpt>
      <trkpt lat="49.87051" lon="5.36647">
        <ele>403</ele>
        <time>2018-02-04T09:57:55Z</time>
      </trkpt>
      <trkpt lat="49.87049" lon="5.36629">
        <ele>402</ele>
        <time>2018-02-04T09:58:05Z</time>
      </trkpt>
      <trkpt lat="49.87047" lon="5.36613">
        <ele>401</ele>
        <time>2018-02-04T09:58:15Z</time>
      </trkpt>
      <trkpt lat="49.87046" lon="5.36594">
        <ele>400</ele>
        <time>2018-02-04T09:58:26Z</time>
      </trkpt>
      <trkpt lat="49.87043" lon="5.36576">
        <ele>399</ele>
        <time>2018-02-04T09:58:36Z</time>
      </trkpt>
      <trkpt lat="49.8704" lon="5.36558">
        <ele>397</ele>
        <time>2018-02-04T09:58:46Z</time>
      </trkpt>
      <trkpt lat="49.87037" lon="5.36542">
        <ele>396</ele>
        <time>2018-02-04T09:58:56Z</time>
      </trkpt>
      <trkpt lat="49.87035" lon="5.36525">
        <ele>394</ele>
        <time>2018-02-04T09:59:07Z</time>
      </trkpt>
      <trkpt lat="49.87033" lon="5.36509">
        <ele>393</ele>
        <time>2018-02-04T09:59:17Z</time>
      </trkpt>
      <trkpt lat="49.87031" lon="5.36492">
        <ele>392</ele>
        <time>2018-02-04T09:59:27Z</time>
      </trkpt>
      <trkpt lat="49.87028" lon="5.36475">
        <ele>390</ele>
        <time>2018-02-04T09:59:37Z</time>
      </trkpt>
      <trkpt lat="49.87025" lon="5.36458">
        <ele>389</ele>
        <time>2018-02-04T09:59:48Z</time>
      </trkpt>
      <trkpt lat="49.87023" lon="5.36441">
        <ele>388</ele>
        <time>2018-02-04T09:59:58Z</time>
      </trkpt>
      <trkpt lat="49.87021" lon="5.36424">
        <ele>387</ele>
        <time>2018-02-04T10:00:08Z</time>
      </trkpt>
      <trkpt lat="49.87019" lon="5.36406">
        <ele>386</ele>
        <time>2018-02-04T10:00:19Z</time>
      </trkpt>
      <trkpt lat="49.87016" lon="5.36389">
        <ele>385</ele>
        <time>2018-02-04T10:00:29Z</time>
      </trkpt>
      <trkpt lat="49.87016" lon="5.36371">
        <ele>385</ele>
        <time>2018-02-04T10:00:40Z</time>
      </trkpt>
      <trkpt lat="49.87014" lon="5.36354">
        <ele>384</ele>
        <time>2018-02-04T10:00:50Z</time>
      </trkpt>
      <trkpt lat="49.87011" lon="5.36336">
        <ele>384</ele>
        <time>2018-02-04T10:01:01Z</time>
      </trkpt>
      <trkpt lat="49.87008" lon="5.36317">
        <ele>383</ele>
        <time>2018-02-04T10:01:12Z</time>
      </trkpt>
      <trkpt lat="49.87005" lon="5.363">
        <ele>383</ele>
        <time>2018-02-04T10:01:22Z</time>
      </trkpt>
      <trkpt lat="49.87002" lon="5.36283">
        <ele>383</ele>
        <time>2018-02-04T10:01:32Z</time>
      </trkpt>
      <trkpt lat="49.86993" lon="5.36269">
        <ele>382</ele>
        <time>2018-02-04T10:01:43Z</time>
      </trkpt>
      <trkpt lat="49.86983" lon="5.36263">
        <ele>382</ele>
        <time>2018-02-04T10:01:54Z</time>
      </trkpt>
      <trkpt lat="49.86972" lon="5.36258">
        <ele>380</ele>
        <time>2018-02-04T10:02:05Z</time>
      </trkpt>
      <trkpt lat="49.86961" lon="5.36254">
        <ele>378</ele>
        <time>2018-02-04T10:02:15Z</time>
      </trkpt>
      <trkpt lat="49.86951" lon="5.3625">
        <ele>377</ele>
        <time>2018-02-04T10:02:25Z</time>
      </trkpt>
      <trkpt lat="49.8694" lon="5.36246">
        <ele>378</ele>
        <time>2018-02-04T10:02:35Z</time>
      </trkpt>
      <trkpt lat="49.86927" lon="5.36242">
        <ele>376</ele>
        <time>2018-02-04T10:02:46Z</time>
      </trkpt>
      <trkpt lat="49.86917" lon="5.36238">
        <ele>376</ele>
        <time>2018-02-04T10:02:56Z</time>
      </trkpt>
      <trkpt lat="49.86904" lon="5.36234">
        <ele>375</ele>
        <time>2018-02-04T10:03:07Z</time>
      </trkpt>
      <trkpt lat="49.86892" lon="5.36229">
        <ele>374</ele>
        <time>2018-02-04T10:03:17Z</time>
      </trkpt>
      <trkpt lat="49.86879" lon="5.36226">
        <ele>373</ele>
        <time>2018-02-04T10:03:28Z</time>
      </trkpt>
      <trkpt lat="49.86866" lon="5.36227">
        <ele>372</ele>
        <time>2018-02-04T10:03:39Z</time>
      </trkpt>
      <trkpt lat="49.86861" lon="5.36221">
        <ele>372</ele>
        <time>2018-02-04T10:03:50Z</time>
      </trkpt>
      <trkpt lat="49.86862" lon="5.36204">
        <ele>372</ele>
        <time>2018-02-04T10:04:00Z</time>
      </trkpt>
      <trkpt lat="49.86865" lon="5.36186">
        <ele>372</ele>
        <time>2018-02-04T10:04:10Z</time>
      </trkpt>
      <trkpt lat="49.86869" lon="5.36168">
        <ele>372</ele>
        <time>2018-02-04T10:04:21Z</time>
      </trkpt>
      <trkpt lat="49.86872" lon="5.36152">
        <ele>373</ele>
        <time>2018-02-04T10:04:31Z</time>
      </trkpt>
      <trkpt lat="49.86875" lon="5.36131">
        <ele>374</ele>
        <time>2018-02-04T10:04:42Z</time>
      </trkpt>
      <trkpt lat="49.86877" lon="5.36114">
        <ele>374</ele>
        <time>2018-02-04T10:04:52Z</time>
      </trkpt>
      <trkpt lat="49.86879" lon="5.36102">
        <ele>375</ele>
        <time>2018-02-04T10:05:03Z</time>
      </trkpt>
      <trkpt lat="49.86879" lon="5.36102">
        <ele>375</ele>
        <time>2018-02-04T10:05:14Z</time>
      </trkpt>
      <trkpt lat="49.8688" lon="5.36102">
        <ele>375</ele>
        <time>2018-02-04T10:05:25Z</time>
      </trkpt>
      <trkpt lat="49.8688" lon="5.36105">
        <ele>375</ele>
        <time>2018-02-04T10:05:36Z</time>
      </trkpt>
      <trkpt lat="49.86882" lon="5.36105">
        <ele>374</ele>
        <time>2018-02-04T10:05:46Z</time>
      </trkpt>
      <trkpt lat="49.86883" lon="5.36107">
        <ele>375</ele>
        <time>2018-02-04T10:05:59Z</time>
      </trkpt>
      <trkpt lat="49.86882" lon="5.36107">
        <ele>375</ele>
        <time>2018-02-04T10:06:10Z</time>
      </trkpt>
      <trkpt lat="49.86884" lon="5.36101">
        <ele>375</ele>
        <time>2018-02-04T10:06:20Z</time>
      </trkpt>
      <trkpt lat="49.86888" lon="5.36086">
        <ele>375</ele>
        <time>2018-02-04T10:06:31Z</time>
      </trkpt>
      <trkpt lat="49.86891" lon="5.36071">
        <ele>376</ele>
        <time>2018-02-04T10:06:41Z</time>
      </trkpt>
      <trkpt lat="49.86895" lon="5.36058">
        <ele>376</ele>
        <time>2018-02-04T10:06:51Z</time>
      </trkpt>
      <trkpt lat="49.86899" lon="5.36042">
        <ele>377</ele>
        <time>2018-02-04T10:07:02Z</time>
      </trkpt>
      <trkpt lat="49.86903" lon="5.36026">
        <ele>378</ele>
        <time>2018-02-04T10:07:13Z</time>
      </trkpt>
      <trkpt lat="49.86907" lon="5.3601">
        <ele>378</ele>
        <time>2018-02-04T10:07:23Z</time>
      </trkpt>
      <trkpt lat="49.86912" lon="5.35992">
        <ele>379</ele>
        <time>2018-02-04T10:07:34Z</time>
      </trkpt>
      <trkpt lat="49.86919" lon="5.35976">
        <ele>380</ele>
        <time>2018-02-04T10:07:45Z</time>
      </trkpt>
      <trkpt lat="49.86923" lon="5.35957">
        <ele>381</ele>
        <time>2018-02-04T10:07:56Z</time>
      </trkpt>
      <trkpt lat="49.86927" lon="5.35938">
        <ele>381</ele>
        <time>2018-02-04T10:08:06Z</time>
      </trkpt>
      <trkpt lat="49.86933" lon="5.3592">
        <ele>382</ele>
        <time>2018-02-04T10:08:16Z</time>
      </trkpt>
      <trkpt lat="49.8694" lon="5.35903">
        <ele>382</ele>
        <time>2018-02-04T10:08:27Z</time>
      </trkpt>
      <trkpt lat="49.86947" lon="5.35887">
        <ele>383</ele>
        <time>2018-02-04T10:08:37Z</time>
      </trkpt>
      <trkpt lat="49.86953" lon="5.35875">
        <ele>383</ele>
        <time>2018-02-04T10:08:47Z</time>
      </trkpt>
      <trkpt lat="49.8696" lon="5.35861">
        <ele>384</ele>
        <time>2018-02-04T10:08:57Z</time>
      </trkpt>
      <trkpt lat="49.86967" lon="5.35848">
        <ele>384</ele>
        <time>2018-02-04T10:09:07Z</time>
      </trkpt>
      <trkpt lat="49.86974" lon="5.35832">
        <ele>384</ele>
        <time>2018-02-04T10:09:18Z</time>
      </trkpt>
      <trkpt lat="49.86981" lon="5.35818">
        <ele>385</ele>
        <time>2018-02-04T10:09:28Z</time>
      </trkpt>
      <trkpt lat="49.86989" lon="5.35807">
        <ele>385</ele>
        <time>2018-02-04T10:09:38Z</time>
      </trkpt>
      <trkpt lat="49.86998" lon="5.35794">
        <ele>387</ele>
        <time>2018-02-04T10:09:49Z</time>
      </trkpt>
      <trkpt lat="49.87007" lon="5.35783">
        <ele>387</ele>
        <time>2018-02-04T10:09:59Z</time>
      </trkpt>
      <trkpt lat="49.87016" lon="5.35769">
        <ele>388</ele>
        <time>2018-02-04T10:10:10Z</time>
      </trkpt>
      <trkpt lat="49.87022" lon="5.35755">
        <ele>388</ele>
        <time>2018-02-04T10:10:20Z</time>
      </trkpt>
      <trkpt lat="49.87029" lon="5.35742">
        <ele>388</ele>
        <time>2018-02-04T10:10:30Z</time>
      </trkpt>
      <trkpt lat="49.87037" lon="5.35727">
        <ele>388</ele>
        <time>2018-02-04T10:10:40Z</time>
      </trkpt>
      <trkpt lat="49.87045" lon="5.35713">
        <ele>388</ele>
        <time>2018-02-04T10:10:51Z</time>
      </trkpt>
      <trkpt lat="49.87053" lon="5.35697">
        <ele>389</ele>
        <time>2018-02-04T10:11:01Z</time>
      </trkpt>
      <trkpt lat="49.87061" lon="5.35679">
        <ele>389</ele>
        <time>2018-02-04T10:11:12Z</time>
      </trkpt>
      <trkpt lat="49.8707" lon="5.35666">
        <ele>388</ele>
        <time>2018-02-04T10:11:22Z</time>
      </trkpt>
      <trkpt lat="49.87076" lon="5.35655">
        <ele>389</ele>
        <time>2018-02-04T10:11:32Z</time>
      </trkpt>
      <trkpt lat="49.87083" lon="5.35641">
        <ele>390</ele>
        <time>2018-02-04T10:11:43Z</time>
      </trkpt>
      <trkpt lat="49.87091" lon="5.35624">
        <ele>390</ele>
        <time>2018-02-04T10:11:54Z</time>
      </trkpt>
      <trkpt lat="49.87098" lon="5.35608">
        <ele>389</ele>
        <time>2018-02-04T10:12:05Z</time>
      </trkpt>
      <trkpt lat="49.87103" lon="5.35595">
        <ele>391</ele>
        <time>2018-02-04T10:12:15Z</time>
      </trkpt>
      <trkpt lat="49.87108" lon="5.35588">
        <ele>390</ele>
        <time>2018-02-04T10:12:25Z</time>
      </trkpt>
      <trkpt lat="49.87114" lon="5.35576">
        <ele>391</ele>
        <time>2018-02-04T10:12:35Z</time>
      </trkpt>
      <trkpt lat="49.87122" lon="5.35561">
        <ele>393</ele>
        <time>2018-02-04T10:12:46Z</time>
      </trkpt>
      <trkpt lat="49.87132" lon="5.35546">
        <ele>392</ele>
        <time>2018-02-04T10:12:57Z</time>
      </trkpt>
      <trkpt lat="49.8714" lon="5.35533">
        <ele>392</ele>
        <time>2018-02-04T10:13:07Z</time>
      </trkpt>
      <trkpt lat="49.87146" lon="5.35522">
        <ele>392</ele>
        <time>2018-02-04T10:13:17Z</time>
      </trkpt>
      <trkpt lat="49.87152" lon="5.35506">
        <ele>391</ele>
        <time>2018-02-04T10:13:27Z</time>
      </trkpt>
      <trkpt lat="49.87159" lon="5.35489">
        <ele>390</ele>
        <time>2018-02-04T10:13:38Z</time>
      </trkpt>
      <trkpt lat="49.87165" lon="5.35475">
        <ele>389</ele>
        <time>2018-02-04T10:13:48Z</time>
      </trkpt>
      <trkpt lat="49.87172" lon="5.35459">
        <ele>388</ele>
        <time>2018-02-04T10:13:59Z</time>
      </trkpt>
      <trkpt lat="49.87181" lon="5.35444">
        <ele>387</ele>
        <time>2018-02-04T10:14:09Z</time>
      </trkpt>
      <trkpt lat="49.87189" lon="5.3543">
        <ele>386</ele>
        <time>2018-02-04T10:14:19Z</time>
      </trkpt>
      <trkpt lat="49.87197" lon="5.35416">
        <ele>386</ele>
        <time>2018-02-04T10:14:29Z</time>
      </trkpt>
      <trkpt lat="49.87202" lon="5.35401">
        <ele>386</ele>
        <time>2018-02-04T10:14:40Z</time>
      </trkpt>
      <trkpt lat="49.87209" lon="5.35384">
        <ele>386</ele>
        <time>2018-02-04T10:14:51Z</time>
      </trkpt>
      <trkpt lat="49.87213" lon="5.35365">
        <ele>387</ele>
        <time>2018-02-04T10:15:01Z</time>
      </trkpt>
      <trkpt lat="49.87218" lon="5.35346">
        <ele>387</ele>
        <time>2018-02-04T10:15:12Z</time>
      </trkpt>
      <trkpt lat="49.87223" lon="5.35331">
        <ele>388</ele>
        <time>2018-02-04T10:15:22Z</time>
      </trkpt>
      <trkpt lat="49.87226" lon="5.35322">
        <ele>388</ele>
        <time>2018-02-04T10:15:32Z</time>
      </trkpt>
      <trkpt lat="49.87231" lon="5.35308">
        <ele>388</ele>
        <time>2018-02-04T10:15:43Z</time>
      </trkpt>
      <trkpt lat="49.87235" lon="5.35293">
        <ele>390</ele>
        <time>2018-02-04T10:15:53Z</time>
      </trkpt>
      <trkpt lat="49.87241" lon="5.35277">
        <ele>389</ele>
        <time>2018-02-04T10:16:03Z</time>
      </trkpt>
      <trkpt lat="49.87245" lon="5.35261">
        <ele>390</ele>
        <time>2018-02-04T10:16:14Z</time>
      </trkpt>
      <trkpt lat="49.87249" lon="5.35257">
        <ele>390</ele>
        <time>2018-02-04T10:16:25Z</time>
      </trkpt>
      <trkpt lat="49.87253" lon="5.3525">
        <ele>391</ele>
        <time>2018-02-04T10:16:36Z</time>
      </trkpt>
      <trkpt lat="49.87257" lon="5.35237">
        <ele>390</ele>
        <time>2018-02-04T10:16:46Z</time>
      </trkpt>
      <trkpt lat="49.87257" lon="5.35223">
        <ele>392</ele>
        <time>2018-02-04T10:16:56Z</time>
      </trkpt>
      <trkpt lat="49.87259" lon="5.35206">
        <ele>393</ele>
        <time>2018-02-04T10:17:07Z</time>
      </trkpt>
      <trkpt lat="49.87262" lon="5.35189">
        <ele>394</ele>
        <time>2018-02-04T10:17:18Z</time>
      </trkpt>
      <trkpt lat="49.87265" lon="5.35173">
        <ele>394</ele>
        <time>2018-02-04T10:17:28Z</time>
      </trkpt>
      <trkpt lat="49.87268" lon="5.35154">
        <ele>394</ele>
        <time>2018-02-04T10:17:38Z</time>
      </trkpt>
      <trkpt lat="49.87271" lon="5.35132">
        <ele>393</ele>
        <time>2018-02-04T10:17:49Z</time>
      </trkpt>
      <trkpt lat="49.87273" lon="5.35112">
        <ele>393</ele>
        <time>2018-02-04T10:18:00Z</time>
      </trkpt>
      <trkpt lat="49.87275" lon="5.35094">
        <ele>392</ele>
        <time>2018-02-04T10:18:10Z</time>
      </trkpt>
      <trkpt lat="49.87279" lon="5.35076">
        <ele>391</ele>
        <time>2018-02-04T10:18:20Z</time>
      </trkpt>
      <trkpt lat="49.87282" lon="5.35059">
        <ele>391</ele>
        <time>2018-02-04T10:18:31Z</time>
      </trkpt>
      <trkpt lat="49.87286" lon="5.35042">
        <ele>390</ele>
        <time>2018-02-04T10:18:42Z</time>
      </trkpt>
      <trkpt lat="49.87291" lon="5.35025">
        <ele>390</ele>
        <time>2018-02-04T10:18:53Z</time>
      </trkpt>
      <trkpt lat="49.87294" lon="5.35015">
        <ele>390</ele>
        <time>2018-02-04T10:19:03Z</time>
      </trkpt>
      <trkpt lat="49.87301" lon="5.35">
        <ele>390</ele>
        <time>2018-02-04T10:19:13Z</time>
      </trkpt>
      <trkpt lat="49.87309" lon="5.34985">
        <ele>390</ele>
        <time>2018-02-04T10:19:24Z</time>
      </trkpt>
      <trkpt lat="49.87317" lon="5.3497">
        <ele>389</ele>
        <time>2018-02-04T10:19:35Z</time>
      </trkpt>
      <trkpt lat="49.87323" lon="5.34954">
        <ele>389</ele>
        <time>2018-02-04T10:19:46Z</time>
      </trkpt>
      <trkpt lat="49.87329" lon="5.3494">
        <ele>389</ele>
        <time>2018-02-04T10:19:56Z</time>
      </trkpt>
      <trkpt lat="49.87335" lon="5.34928">
        <ele>389</ele>
        <time>2018-02-04T10:20:06Z</time>
      </trkpt>
      <trkpt lat="49.87342" lon="5.34913">
        <ele>388</ele>
        <time>2018-02-04T10:20:16Z</time>
      </trkpt>
      <trkpt lat="49.87349" lon="5.34897">
        <ele>388</ele>
        <time>2018-02-04T10:20:27Z</time>
      </trkpt>
      <trkpt lat="49.87356" lon="5.34882">
        <ele>387</ele>
        <time>2018-02-04T10:20:38Z</time>
      </trkpt>
      <trkpt lat="49.87363" lon="5.34867">
        <ele>388</ele>
        <time>2018-02-04T10:20:49Z</time>
      </trkpt>
      <trkpt lat="49.87368" lon="5.34854">
        <ele>387</ele>
        <time>2018-02-04T10:20:59Z</time>
      </trkpt>
      <trkpt lat="49.87376" lon="5.34839">
        <ele>388</ele>
        <time>2018-02-04T10:21:09Z</time>
      </trkpt>
      <trkpt lat="49.87383" lon="5.34826">
        <ele>388</ele>
        <time>2018-02-04T10:21:20Z</time>
      </trkpt>
      <trkpt lat="49.87389" lon="5.3481">
        <ele>389</ele>
        <time>2018-02-04T10:21:30Z</time>
      </trkpt>
      <trkpt lat="49.87395" lon="5.34795">
        <ele>390</ele>
        <time>2018-02-04T10:21:40Z</time>
      </trkpt>
      <trkpt lat="49.87403" lon="5.34778">
        <ele>391</ele>
        <time>2018-02-04T10:21:51Z</time>
      </trkpt>
      <trkpt lat="49.8741" lon="5.34764">
        <ele>392</ele>
        <time>2018-02-04T10:22:01Z</time>
      </trkpt>
      <trkpt lat="49.87418" lon="5.34749">
        <ele>394</ele>
        <time>2018-02-04T10:22:12Z</time>
      </trkpt>
      <trkpt lat="49.87425" lon="5.34734">
        <ele>395</ele>
        <time>2018-02-04T10:22:22Z</time>
      </trkpt>
      <trkpt lat="49.87432" lon="5.34719">
        <ele>395</ele>
        <time>2018-02-04T10:22:32Z</time>
      </trkpt>
      <trkpt lat="49.87439" lon="5.34703">
        <ele>396</ele>
        <time>2018-02-04T10:22:43Z</time>
      </trkpt>
      <trkpt lat="49.87447" lon="5.34687">
        <ele>397</ele>
        <time>2018-02-04T10:22:54Z</time>
      </trkpt>
      <trkpt lat="49.87452" lon="5.34677">
        <ele>397</ele>
        <time>2018-02-04T10:23:04Z</time>
      </trkpt>
      <trkpt lat="49.87454" lon="5.34675">
        <ele>397</ele>
        <time>2018-02-04T10:23:15Z</time>
      </trkpt>
      <trkpt lat="49.87461" lon="5.34663">
        <ele>397</ele>
        <time>2018-02-04T10:23:25Z</time>
      </trkpt>
      <trkpt lat="49.87469" lon="5.34652">
        <ele>398</ele>
        <time>2018-02-04T10:23:36Z</time>
      </trkpt>
      <trkpt lat="49.87479" lon="5.3464">
        <ele>397</ele>
        <time>2018-02-04T10:23:47Z</time>
      </trkpt>
      <trkpt lat="49.87487" lon="5.34629">
        <ele>395</ele>
        <time>2018-02-04T10:23:57Z</time>
      </trkpt>
      <trkpt lat="49.87496" lon="5.34615">
        <ele>395</ele>
        <time>2018-02-04T10:24:08Z</time>
      </trkpt>
      <trkpt lat="49.87506" lon="5.34601">
        <ele>395</ele>
        <time>2018-02-04T10:24:19Z</time>
      </trkpt>
      <trkpt lat="49.87515" lon="5.3459">
        <ele>393</ele>
        <time>2018-02-04T10:24:29Z</time>
      </trkpt>
      <trkpt lat="49.87524" lon="5.34578">
        <ele>393</ele>
        <time>2018-02-04T10:24:40Z</time>
      </trkpt>
      <trkpt lat="49.87532" lon="5.34565">
        <ele>392</ele>
        <time>2018-02-04T10:24:51Z</time>
      </trkpt>
      <trkpt lat="49.87541" lon="5.34552">
        <ele>392</ele>
        <time>2018-02-04T10:25:01Z</time>
      </trkpt>
      <trkpt lat="49.87551" lon="5.34537">
        <ele>393</ele>
        <time>2018-02-04T10:25:12Z</time>
      </trkpt>
      <trkpt lat="49.8756" lon="5.34528">
        <ele>393</ele>
        <time>2018-02-04T10:25:23Z</time>
      </trkpt>
      <trkpt lat="49.87567" lon="5.34515">
        <ele>392</ele>
        <time>2018-02-04T10:25:33Z</time>
      </trkpt>
      <trkpt lat="49.87577" lon="5.34504">
        <ele>392</ele>
        <time>2018-02-04T10:25:44Z</time>
      </trkpt>
      <trkpt lat="49.87587" lon="5.34492">
        <ele>392</ele>
        <time>2018-02-04T10:25:54Z</time>
      </trkpt>
      <trkpt lat="49.87588" lon="5.34478">
        <ele>392</ele>
        <time>2018-02-04T10:26:04Z</time>
      </trkpt>
      <trkpt lat="49.87585" lon="5.34465">
        <ele>390</ele>
        <time>2018-02-04T10:26:14Z</time>
      </trkpt>
      <trkpt lat="49.87582" lon="5.34449">
        <ele>389</ele>
        <time>2018-02-04T10:26:25Z</time>
      </trkpt>
      <trkpt lat="49.87582" lon="5.34445">
        <ele>389</ele>
        <time>2018-02-04T10:26:35Z</time>
      </trkpt>
      <trkpt lat="49.87581" lon="5.3444">
        <ele>388</ele>
        <time>2018-02-04T10:26:46Z</time>
      </trkpt>
      <trkpt lat="49.8758" lon="5.34438">
        <ele>388</ele>
        <time>2018-02-04T10:26:56Z</time>
      </trkpt>
      <trkpt lat="49.8758" lon="5.34436">
        <ele>388</ele>
        <time>2018-02-04T10:27:07Z</time>
      </trkpt>
      <trkpt lat="49.87578" lon="5.34423">
        <ele>387</ele>
        <time>2018-02-04T10:27:17Z</time>
      </trkpt>
      <trkpt lat="49.87576" lon="5.34411">
        <ele>387</ele>
        <time>2018-02-04T10:27:28Z</time>
      </trkpt>
      <trkpt lat="49.87576" lon="5.3441">
        <ele>387</ele>
        <time>2018-02-04T10:27:39Z</time>
      </trkpt>
      <trkpt lat="49.87576" lon="5.3441">
        <ele>387</ele>
        <time>2018-02-04T10:27:49Z</time>
      </trkpt>
      <trkpt lat="49.87575" lon="5.34409">
        <ele>387</ele>
        <time>2018-02-04T10:28:00Z</time>
      </trkpt>
      <trkpt lat="49.87572" lon="5.34395">
        <ele>386</ele>
        <time>2018-02-04T10:28:10Z</time>
      </trkpt>
      <trkpt lat="49.87567" lon="5.34379">
        <ele>386</ele>
        <time>2018-02-04T10:28:21Z</time>
      </trkpt>
      <trkpt lat="49.87562" lon="5.34364">
        <ele>386</ele>
        <time>2018-02-04T10:28:31Z</time>
      </trkpt>
      <trkpt lat="49.87557" lon="5.3435">
        <ele>386</ele>
        <time>2018-02-04T10:28:41Z</time>
      </trkpt>
      <trkpt lat="49.87551" lon="5.34334">
        <ele>387</ele>
        <time>2018-02-04T10:28:51Z</time>
      </trkpt>
      <trkpt lat="49.87545" lon="5.34318">
        <ele>387</ele>
        <time>2018-02-04T10:29:02Z</time>
      </trkpt>
      <trkpt lat="49.87543" lon="5.34314">
        <ele>388</ele>
        <time>2018-02-04T10:29:13Z</time>
      </trkpt>
      <trkpt lat="49.8754" lon="5.34311">
        <ele>388</ele>
        <time>2018-02-04T10:29:24Z</time>
      </trkpt>
      <trkpt lat="49.87535" lon="5.34302">
        <ele>388</ele>
        <time>2018-02-04T10:29:34Z</time>
      </trkpt>
      <trkpt lat="49.87531" lon="5.34289">
        <ele>388</ele>
        <time>2018-02-04T10:29:45Z</time>
      </trkpt>
      <trkpt lat="49.87531" lon="5.34276">
        <ele>389</ele>
        <time>2018-02-04T10:29:55Z</time>
      </trkpt>
      <trkpt lat="49.87529" lon="5.34259">
        <ele>389</ele>
        <time>2018-02-04T10:30:06Z</time>
      </trkpt>
      <trkpt lat="49.87527" lon="5.34244">
        <ele>390</ele>
        <time>2018-02-04T10:30:16Z</time>
      </trkpt>
      <trkpt lat="49.87526" lon="5.34232">
        <ele>390</ele>
        <time>2018-02-04T10:30:27Z</time>
      </trkpt>
      <trkpt lat="49.87525" lon="5.34223">
        <ele>390</ele>
        <time>2018-02-04T10:30:38Z</time>
      </trkpt>
      <trkpt lat="49.87525" lon="5.34211">
        <ele>390</ele>
        <time>2018-02-04T10:30:49Z</time>
      </trkpt>
      <trkpt lat="49.87524" lon="5.34201">
        <ele>391</ele>
        <time>2018-02-04T10:30:59Z</time>
      </trkpt>
      <trkpt lat="49.87524" lon="5.34189">
        <ele>392</ele>
        <time>2018-02-04T10:31:09Z</time>
      </trkpt>
      <trkpt lat="49.87526" lon="5.34173">
        <ele>392</ele>
        <time>2018-02-04T10:31:20Z</time>
      </trkpt>
      <trkpt lat="49.87529" lon="5.34155">
        <ele>393</ele>
        <time>2018-02-04T10:31:31Z</time>
      </trkpt>
      <trkpt lat="49.87528" lon="5.34138">
        <ele>394</ele>
        <time>2018-02-04T10:31:41Z</time>
      </trkpt>
      <trkpt lat="49.87532" lon="5.34121">
        <ele>394</ele>
        <time>2018-02-04T10:31:52Z</time>
      </trkpt>
      <trkpt lat="49.87536" lon="5.34101">
        <ele>395</ele>
        <time>2018-02-04T10:32:03Z</time>
      </trkpt>
      <trkpt lat="49.87539" lon="5.34084">
        <ele>396</ele>
        <time>2018-02-04T10:32:13Z</time>
      </trkpt>
      <trkpt lat="49.87538" lon="5.34066">
        <ele>397</ele>
        <time>2018-02-04T10:32:24Z</time>
      </trkpt>
      <trkpt lat="49.87538" lon="5.34047">
        <ele>398</ele>
        <time>2018-02-04T10:32:35Z</time>
      </trkpt>
      <trkpt lat="49.87535" lon="5.34028">
        <ele>399</ele>
        <time>2018-02-04T10:32:45Z</time>
      </trkpt>
      <trkpt lat="49.87535" lon="5.34008">
        <ele>400</ele>
        <time>2018-02-04T10:32:56Z</time>
      </trkpt>
      <trkpt lat="49.87533" lon="5.33993">
        <ele>400</ele>
        <time>2018-02-04T10:33:06Z</time>
      </trkpt>
      <trkpt lat="49.87531" lon="5.33975">
        <ele>400</ele>
        <time>2018-02-04T10:33:16Z</time>
      </trkpt>
      <trkpt lat="49.87529" lon="5.33955">
        <ele>401</ele>
        <time>2018-02-04T10:33:27Z</time>
      </trkpt>
      <trkpt lat="49.87527" lon="5.33937">
        <ele>401</ele>
        <time>2018-02-04T10:33:37Z</time>
      </trkpt>
      <trkpt lat="49.87526" lon="5.33921">
        <ele>401</ele>
        <time>2018-02-04T10:33:47Z</time>
      </trkpt>
      <trkpt lat="49.87524" lon="5.33901">
        <ele>401</ele>
        <time>2018-02-04T10:33:58Z</time>
      </trkpt>
      <trkpt lat="49.87523" lon="5.33876">
        <ele>401</ele>
        <time>2018-02-04T10:34:09Z</time>
      </trkpt>
      <trkpt lat="49.87522" lon="5.33862">
        <ele>400</ele>
        <time>2018-02-04T10:34:19Z</time>
      </trkpt>
      <trkpt lat="49.87521" lon="5.33845">
        <ele>400</ele>
        <time>2018-02-04T10:34:30Z</time>
      </trkpt>
      <trkpt lat="49.87521" lon="5.33826">
        <ele>401</ele>
        <time>2018-02-04T10:34:40Z</time>
      </trkpt>
      <trkpt lat="49.87521" lon="5.3381">
        <ele>401</ele>
        <time>2018-02-04T10:34:51Z</time>
      </trkpt>
      <trkpt lat="49.8752" lon="5.33793">
        <ele>401</ele>
        <time>2018-02-04T10:35:01Z</time>
      </trkpt>
      <trkpt lat="49.87523" lon="5.33772">
        <ele>401</ele>
        <time>2018-02-04T10:35:12Z</time>
      </trkpt>
      <trkpt lat="49.87522" lon="5.33753">
        <ele>402</ele>
        <time>2018-02-04T10:35:22Z</time>
      </trkpt>
      <trkpt lat="49.8752" lon="5.33733">
        <ele>402</ele>
        <time>2018-02-04T10:35:33Z</time>
      </trkpt>
      <trkpt lat="49.87523" lon="5.33713">
        <ele>402</ele>
        <time>2018-02-04T10:35:44Z</time>
      </trkpt>
      <trkpt lat="49.87522" lon="5.33698">
        <ele>402</ele>
        <time>2018-02-04T10:35:54Z</time>
      </trkpt>
      <trkpt lat="49.87517" lon="5.33679">
        <ele>402</ele>
        <time>2018-02-04T10:36:05Z</time>
      </trkpt>
      <trkpt lat="49.87516" lon="5.3366">
        <ele>402</ele>
        <time>2018-02-04T10:36:15Z</time>
      </trkpt>
      <trkpt lat="49.87516" lon="5.33653">
        <ele>403</ele>
        <time>2018-02-04T10:36:26Z</time>
      </trkpt>
      <trkpt lat="49.87516" lon="5.33639">
        <ele>403</ele>
        <time>2018-02-04T10:36:36Z</time>
      </trkpt>
      <trkpt lat="49.87518" lon="5.33627">
        <ele>402</ele>
        <time>2018-02-04T10:36:47Z</time>
      </trkpt>
      <trkpt lat="49.87515" lon="5.33616">
        <ele>403</ele>
        <time>2018-02-04T10:36:57Z</time>
      </trkpt>
      <trkpt lat="49.87506" lon="5.33621">
        <ele>403</ele>
        <time>2018-02-04T10:37:08Z</time>
      </trkpt>
      <trkpt lat="49.87502" lon="5.33629">
        <ele>404</ele>
        <time>2018-02-04T10:37:18Z</time>
      </trkpt>
      <trkpt lat="49.87495" lon="5.33637">
        <ele>404</ele>
        <time>2018-02-04T10:37:29Z</time>
      </trkpt>
      <trkpt lat="49.87486" lon="5.33646">
        <ele>406</ele>
        <time>2018-02-04T10:37:39Z</time>
      </trkpt>
      <trkpt lat="49.87476" lon="5.33655">
        <ele>406</ele>
        <time>2018-02-04T10:37:50Z</time>
      </trkpt>
      <trkpt lat="49.87466" lon="5.33664">
        <ele>406</ele>
        <time>2018-02-04T10:38:00Z</time>
      </trkpt>
      <trkpt lat="49.87458" lon="5.33673">
        <ele>407</ele>
        <time>2018-02-04T10:38:10Z</time>
      </trkpt>
      <trkpt lat="49.87448" lon="5.3368">
        <ele>408</ele>
        <time>2018-02-04T10:38:20Z</time>
      </trkpt>
      <trkpt lat="49.87439" lon="5.33692">
        <ele>408</ele>
        <time>2018-02-04T10:38:31Z</time>
      </trkpt>
      <trkpt lat="49.8743" lon="5.33698">
        <ele>408</ele>
        <time>2018-02-04T10:38:41Z</time>
      </trkpt>
      <trkpt lat="49.8742" lon="5.33708">
        <ele>408</ele>
        <time>2018-02-04T10:38:51Z</time>
      </trkpt>
      <trkpt lat="49.87409" lon="5.33719">
        <ele>408</ele>
        <time>2018-02-04T10:39:01Z</time>
      </trkpt>
      <trkpt lat="49.87397" lon="5.33729">
        <ele>407</ele>
        <time>2018-02-04T10:39:13Z</time>
      </trkpt>
      <trkpt lat="49.87385" lon="5.3374">
        <ele>407</ele>
        <time>2018-02-04T10:39:24Z</time>
      </trkpt>
      <trkpt lat="49.87374" lon="5.33749">
        <ele>407</ele>
        <time>2018-02-04T10:39:35Z</time>
      </trkpt>
      <trkpt lat="49.87364" lon="5.33758">
        <ele>407</ele>
        <time>2018-02-04T10:39:45Z</time>
      </trkpt>
      <trkpt lat="49.87351" lon="5.33767">
        <ele>406</ele>
        <time>2018-02-04T10:39:55Z</time>
      </trkpt>
      <trkpt lat="49.87339" lon="5.33778">
        <ele>407</ele>
        <time>2018-02-04T10:40:05Z</time>
      </trkpt>
      <trkpt lat="49.87329" lon="5.33785">
        <ele>406</ele>
        <time>2018-02-04T10:40:15Z</time>
      </trkpt>
      <trkpt lat="49.87318" lon="5.33795">
        <ele>406</ele>
        <time>2018-02-04T10:40:26Z</time>
      </trkpt>
      <trkpt lat="49.87307" lon="5.33806">
        <ele>406</ele>
        <time>2018-02-04T10:40:37Z</time>
      </trkpt>
      <trkpt lat="49.87296" lon="5.33818">
        <ele>406</ele>
        <time>2018-02-04T10:40:47Z</time>
      </trkpt>
      <trkpt lat="49.87285" lon="5.33829">
        <ele>405</ele>
        <time>2018-02-04T10:40:57Z</time>
      </trkpt>
      <trkpt lat="49.87275" lon="5.33838">
        <ele>405</ele>
        <time>2018-02-04T10:41:08Z</time>
      </trkpt>
      <trkpt lat="49.87266" lon="5.33846">
        <ele>405</ele>
        <time>2018-02-04T10:41:18Z</time>
      </trkpt>
      <trkpt lat="49.87255" lon="5.33856">
        <ele>405</ele>
        <time>2018-02-04T10:41:29Z</time>
      </trkpt>
      <trkpt lat="49.87245" lon="5.33865">
        <ele>404</ele>
        <time>2018-02-04T10:41:39Z</time>
      </trkpt>
      <trkpt lat="49.87233" lon="5.33877">
        <ele>404</ele>
        <time>2018-02-04T10:41:50Z</time>
      </trkpt>
      <trkpt lat="49.87223" lon="5.33887">
        <ele>403</ele>
        <time>2018-02-04T10:42:00Z</time>
      </trkpt>
      <trkpt lat="49.87211" lon="5.339">
        <ele>402</ele>
        <time>2018-02-04T10:42:10Z</time>
      </trkpt>
      <trkpt lat="49.87211" lon="5.3392">
        <ele>402</ele>
        <time>2018-02-04T10:42:21Z</time>
      </trkpt>
      <trkpt lat="49.87218" lon="5.3394">
        <ele>402</ele>
        <time>2018-02-04T10:42:31Z</time>
      </trkpt>
      <trkpt lat="49.87224" lon="5.33958">
        <ele>400</ele>
        <time>2018-02-04T10:42:41Z</time>
      </trkpt>
      <trkpt lat="49.87229" lon="5.33975">
        <ele>400</ele>
        <time>2018-02-04T10:42:52Z</time>
      </trkpt>
      <trkpt lat="49.87234" lon="5.33993">
        <ele>400</ele>
        <time>2018-02-04T10:43:02Z</time>
      </trkpt>
      <trkpt lat="49.8724" lon="5.34011">
        <ele>400</ele>
        <time>2018-02-04T10:43:13Z</time>
      </trkpt>
      <trkpt lat="49.87245" lon="5.34029">
        <ele>401</ele>
        <time>2018-02-04T10:43:23Z</time>
      </trkpt>
      <trkpt lat="49.8725" lon="5.34046">
        <ele>401</ele>
        <time>2018-02-04T10:43:33Z</time>
      </trkpt>
      <trkpt lat="49.87255" lon="5.34063">
        <ele>400</ele>
        <time>2018-02-04T10:43:43Z</time>
      </trkpt>
      <trkpt lat="49.87261" lon="5.34082">
        <ele>400</ele>
        <time>2018-02-04T10:43:54Z</time>
      </trkpt>
      <trkpt lat="49.87265" lon="5.34099">
        <ele>401</ele>
        <time>2018-02-04T10:44:04Z</time>
      </trkpt>
      <trkpt lat="49.87269" lon="5.34119">
        <ele>401</ele>
        <time>2018-02-04T10:44:15Z</time>
      </trkpt>
      <trkpt lat="49.87275" lon="5.34139">
        <ele>400</ele>
        <time>2018-02-04T10:44:25Z</time>
      </trkpt>
      <trkpt lat="49.87281" lon="5.34155">
        <ele>401</ele>
        <time>2018-02-04T10:44:35Z</time>
      </trkpt>
      <trkpt lat="49.87287" lon="5.34171">
        <ele>400</ele>
        <time>2018-02-04T10:44:45Z</time>
      </trkpt>
      <trkpt lat="49.87294" lon="5.34186">
        <ele>400</ele>
        <time>2018-02-04T10:44:55Z</time>
      </trkpt>
      <trkpt lat="49.87298" lon="5.34202">
        <ele>400</ele>
        <time>2018-02-04T10:45:05Z</time>
      </trkpt>
      <trkpt lat="49.87304" lon="5.34219">
        <ele>400</ele>
        <time>2018-02-04T10:45:16Z</time>
      </trkpt>
      <trkpt lat="49.87309" lon="5.34235">
        <ele>398</ele>
        <time>2018-02-04T10:45:27Z</time>
      </trkpt>
      <trkpt lat="49.87314" lon="5.34252">
        <ele>398</ele>
        <time>2018-02-04T10:45:38Z</time>
      </trkpt>
      <trkpt lat="49.87319" lon="5.34269">
        <ele>397</ele>
        <time>2018-02-04T10:45:49Z</time>
      </trkpt>
      <trkpt lat="49.87324" lon="5.34283">
        <ele>396</ele>
        <time>2018-02-04T10:45:59Z</time>
      </trkpt>
      <trkpt lat="49.87326" lon="5.3429">
        <ele>396</ele>
        <time>2018-02-04T10:46:10Z</time>
      </trkpt>
      <trkpt lat="49.87326" lon="5.34295">
        <ele>396</ele>
        <time>2018-02-04T10:46:20Z</time>
      </trkpt>
      <trkpt lat="49.8733" lon="5.34308">
        <ele>395</ele>
        <time>2018-02-04T10:46:31Z</time>
      </trkpt>
      <trkpt lat="49.87333" lon="5.34315">
        <ele>395</ele>
        <time>2018-02-04T10:46:41Z</time>
      </trkpt>
      <trkpt lat="49.87338" lon="5.34331">
        <ele>393</ele>
        <time>2018-02-04T10:46:52Z</time>
      </trkpt>
      <trkpt lat="49.87343" lon="5.34349">
        <ele>391</ele>
        <time>2018-02-04T10:47:02Z</time>
      </trkpt>
      <trkpt lat="49.87348" lon="5.34367">
        <ele>389</ele>
        <time>2018-02-04T10:47:12Z</time>
      </trkpt>
      <trkpt lat="49.87353" lon="5.34384">
        <ele>389</ele>
        <time>2018-02-04T10:47:23Z</time>
      </trkpt>
      <trkpt lat="49.87358" lon="5.34404">
        <ele>388</ele>
        <time>2018-02-04T10:47:33Z</time>
      </trkpt>
      <trkpt lat="49.87362" lon="5.34423">
        <ele>387</ele>
        <time>2018-02-04T10:47:44Z</time>
      </trkpt>
      <trkpt lat="49.87355" lon="5.34438">
        <ele>386</ele>
        <time>2018-02-04T10:47:54Z</time>
      </trkpt>
      <trkpt lat="49.87342" lon="5.34448">
        <ele>386</ele>
        <time>2018-02-04T10:48:05Z</time>
      </trkpt>
      <trkpt lat="49.87329" lon="5.3446">
        <ele>386</ele>
        <time>2018-02-04T10:48:16Z</time>
      </trkpt>
      <trkpt lat="49.87318" lon="5.34473">
        <ele>386</ele>
        <time>2018-02-04T10:48:26Z</time>
      </trkpt>
      <trkpt lat="49.87307" lon="5.34484">
        <ele>386</ele>
        <time>2018-02-04T10:48:36Z</time>
      </trkpt>
      <trkpt lat="49.87299" lon="5.34493">
        <ele>386</ele>
        <time>2018-02-04T10:48:47Z</time>
      </trkpt>
      <trkpt lat="49.87293" lon="5.34499">
        <ele>386</ele>
        <time>2018-02-04T10:48:57Z</time>
      </trkpt>
      <trkpt lat="49.87285" lon="5.34509">
        <ele>385</ele>
        <time>2018-02-04T10:49:08Z</time>
      </trkpt>
      <trkpt lat="49.87275" lon="5.3452">
        <ele>385</ele>
        <time>2018-02-04T10:49:18Z</time>
      </trkpt>
      <trkpt lat="49.87265" lon="5.34531">
        <ele>383</ele>
        <time>2018-02-04T10:49:28Z</time>
      </trkpt>
      <trkpt lat="49.87255" lon="5.34541">
        <ele>382</ele>
        <time>2018-02-04T10:49:39Z</time>
      </trkpt>
      <trkpt lat="49.87247" lon="5.34557">
        <ele>382</ele>
        <time>2018-02-04T10:49:49Z</time>
      </trkpt>
      <trkpt lat="49.87242" lon="5.34574">
        <ele>382</ele>
        <time>2018-02-04T10:49:59Z</time>
      </trkpt>
      <trkpt lat="49.87237" lon="5.34592">
        <ele>382</ele>
        <time>2018-02-04T10:50:10Z</time>
      </trkpt>
      <trkpt lat="49.87233" lon="5.34612">
        <ele>382</ele>
        <time>2018-02-04T10:50:21Z</time>
      </trkpt>
      <trkpt lat="49.87228" lon="5.3463">
        <ele>382</ele>
        <time>2018-02-04T10:50:31Z</time>
      </trkpt>
      <trkpt lat="49.87225" lon="5.3465">
        <ele>383</ele>
        <time>2018-02-04T10:50:41Z</time>
      </trkpt>
      <trkpt lat="49.8722" lon="5.34671">
        <ele>383</ele>
        <time>2018-02-04T10:50:52Z</time>
      </trkpt>
      <trkpt lat="49.87215" lon="5.34689">
        <ele>383</ele>
        <time>2018-02-04T10:51:02Z</time>
      </trkpt>
      <trkpt lat="49.87211" lon="5.34707">
        <ele>383</ele>
        <time>2018-02-04T10:51:13Z</time>
      </trkpt>
      <trkpt lat="49.87204" lon="5.34724">
        <ele>383</ele>
        <time>2018-02-04T10:51:24Z</time>
      </trkpt>
      <trkpt lat="49.87197" lon="5.34739">
        <ele>383</ele>
        <time>2018-02-04T10:51:34Z</time>
      </trkpt>
      <trkpt lat="49.87189" lon="5.34755">
        <ele>382</ele>
        <time>2018-02-04T10:51:44Z</time>
      </trkpt>
      <trkpt lat="49.87181" lon="5.3477">
        <ele>381</ele>
        <time>2018-02-04T10:51:54Z</time>
      </trkpt>
      <trkpt lat="49.87171" lon="5.34785">
        <ele>380</ele>
        <time>2018-02-04T10:52:05Z</time>
      </trkpt>
      <trkpt lat="49.8716" lon="5.348">
        <ele>380</ele>
        <time>2018-02-04T10:52:16Z</time>
      </trkpt>
      <trkpt lat="49.87151" lon="5.34812">
        <ele>379</ele>
        <time>2018-02-04T10:52:26Z</time>
      </trkpt>
      <trkpt lat="49.87141" lon="5.34826">
        <ele>378</ele>
        <time>2018-02-04T10:52:36Z</time>
      </trkpt>
      <trkpt lat="49.87131" lon="5.34839">
        <ele>378</ele>
        <time>2018-02-04T10:52:47Z</time>
      </trkpt>
      <trkpt lat="49.8712" lon="5.34855">
        <ele>378</ele>
        <time>2018-02-04T10:52:58Z</time>
      </trkpt>
      <trkpt lat="49.87111" lon="5.34869">
        <ele>376</ele>
        <time>2018-02-04T10:53:08Z</time>
      </trkpt>
      <trkpt lat="49.87101" lon="5.34883">
        <ele>377</ele>
        <time>2018-02-04T10:53:19Z</time>
      </trkpt>
      <trkpt lat="49.8709" lon="5.34898">
        <ele>376</ele>
        <time>2018-02-04T10:53:29Z</time>
      </trkpt>
      <trkpt lat="49.8708" lon="5.34913">
        <ele>376</ele>
        <time>2018-02-04T10:53:39Z</time>
      </trkpt>
      <trkpt lat="49.87069" lon="5.34927">
        <ele>375</ele>
        <time>2018-02-04T10:53:50Z</time>
      </trkpt>
      <trkpt lat="49.87058" lon="5.34938">
        <ele>375</ele>
        <time>2018-02-04T10:54:01Z</time>
      </trkpt>
      <trkpt lat="49.87048" lon="5.34953">
        <ele>376</ele>
        <time>2018-02-04T10:54:11Z</time>
      </trkpt>
      <trkpt lat="49.87039" lon="5.34971">
        <ele>377</ele>
        <time>2018-02-04T10:54:23Z</time>
      </trkpt>
      <trkpt lat="49.8703" lon="5.34991">
        <ele>376</ele>
        <time>2018-02-04T10:54:33Z</time>
      </trkpt>
      <trkpt lat="49.87024" lon="5.35007">
        <ele>376</ele>
        <time>2018-02-04T10:54:43Z</time>
      </trkpt>
      <trkpt lat="49.87018" lon="5.35025">
        <ele>376</ele>
        <time>2018-02-04T10:54:54Z</time>
      </trkpt>
      <trkpt lat="49.87014" lon="5.35043">
        <ele>375</ele>
        <time>2018-02-04T10:55:05Z</time>
      </trkpt>
      <trkpt lat="49.87011" lon="5.35058">
        <ele>375</ele>
        <time>2018-02-04T10:55:16Z</time>
      </trkpt>
      <trkpt lat="49.87009" lon="5.35074">
        <ele>375</ele>
        <time>2018-02-04T10:55:27Z</time>
      </trkpt>
      <trkpt lat="49.87006" lon="5.35094">
        <ele>375</ele>
        <time>2018-02-04T10:55:37Z</time>
      </trkpt>
      <trkpt lat="49.87003" lon="5.35114">
        <ele>375</ele>
        <time>2018-02-04T10:55:47Z</time>
      </trkpt>
      <trkpt lat="49.86997" lon="5.35133">
        <ele>375</ele>
        <time>2018-02-04T10:55:57Z</time>
      </trkpt>
      <trkpt lat="49.86991" lon="5.35152">
        <ele>374</ele>
        <time>2018-02-04T10:56:07Z</time>
      </trkpt>
      <trkpt lat="49.86985" lon="5.35175">
        <ele>373</ele>
        <time>2018-02-04T10:56:18Z</time>
      </trkpt>
      <trkpt lat="49.86978" lon="5.35198">
        <ele>373</ele>
        <time>2018-02-04T10:56:28Z</time>
      </trkpt>
      <trkpt lat="49.8697" lon="5.3522">
        <ele>372</ele>
        <time>2018-02-04T10:56:40Z</time>
      </trkpt>
      <trkpt lat="49.8696" lon="5.35239">
        <ele>372</ele>
        <time>2018-02-04T10:56:50Z</time>
      </trkpt>
      <trkpt lat="49.86951" lon="5.35256">
        <ele>372</ele>
        <time>2018-02-04T10:57:00Z</time>
      </trkpt>
      <trkpt lat="49.86945" lon="5.35271">
        <ele>372</ele>
        <time>2018-02-04T10:57:11Z</time>
      </trkpt>
      <trkpt lat="49.86938" lon="5.35285">
        <ele>372</ele>
        <time>2018-02-04T10:57:21Z</time>
      </trkpt>
      <trkpt lat="49.86929" lon="5.353">
        <ele>372</ele>
        <time>2018-02-04T10:57:31Z</time>
      </trkpt>
      <trkpt lat="49.86921" lon="5.35313">
        <ele>372</ele>
        <time>2018-02-04T10:57:41Z</time>
      </trkpt>
      <trkpt lat="49.8691" lon="5.35329">
        <ele>372</ele>
        <time>2018-02-04T10:57:52Z</time>
      </trkpt>
      <trkpt lat="49.86902" lon="5.35345">
        <ele>372</ele>
        <time>2018-02-04T10:58:02Z</time>
      </trkpt>
      <trkpt lat="49.86895" lon="5.35358">
        <ele>371</ele>
        <time>2018-02-04T10:58:12Z</time>
      </trkpt>
      <trkpt lat="49.86888" lon="5.35371">
        <ele>371</ele>
        <time>2018-02-04T10:58:22Z</time>
      </trkpt>
      <trkpt lat="49.86879" lon="5.35385">
        <ele>370</ele>
        <time>2018-02-04T10:58:32Z</time>
      </trkpt>
      <trkpt lat="49.86866" lon="5.35393">
        <ele>369</ele>
        <time>2018-02-04T10:58:43Z</time>
      </trkpt>
      <trkpt lat="49.86858" lon="5.35384">
        <ele>370</ele>
        <time>2018-02-04T10:58:54Z</time>
      </trkpt>
      <trkpt lat="49.86855" lon="5.3537">
        <ele>371</ele>
        <time>2018-02-04T10:59:04Z</time>
      </trkpt>
      <trkpt lat="49.86854" lon="5.35353">
        <ele>371</ele>
        <time>2018-02-04T10:59:15Z</time>
      </trkpt>
      <trkpt lat="49.86853" lon="5.35332">
        <ele>372</ele>
        <time>2018-02-04T10:59:25Z</time>
      </trkpt>
      <trkpt lat="49.86853" lon="5.35313">
        <ele>373</ele>
        <time>2018-02-04T10:59:35Z</time>
      </trkpt>
      <trkpt lat="49.86854" lon="5.35292">
        <ele>373</ele>
        <time>2018-02-04T10:59:45Z</time>
      </trkpt>
      <trkpt lat="49.86853" lon="5.35268">
        <ele>374</ele>
        <time>2018-02-04T10:59:56Z</time>
      </trkpt>
      <trkpt lat="49.86852" lon="5.35246">
        <ele>375</ele>
        <time>2018-02-04T11:00:07Z</time>
      </trkpt>
      <trkpt lat="49.86852" lon="5.35228">
        <ele>377</ele>
        <time>2018-02-04T11:00:17Z</time>
      </trkpt>
      <trkpt lat="49.8685" lon="5.35212">
        <ele>378</ele>
        <time>2018-02-04T11:00:27Z</time>
      </trkpt>
      <trkpt lat="49.8685" lon="5.35207">
        <ele>377</ele>
        <time>2018-02-04T11:00:38Z</time>
      </trkpt>
      <trkpt lat="49.8685" lon="5.35205">
        <ele>377</ele>
        <time>2018-02-04T11:00:48Z</time>
      </trkpt>
      <trkpt lat="49.86852" lon="5.35204">
        <ele>377</ele>
        <time>2018-02-04T11:00:58Z</time>
      </trkpt>
      <trkpt lat="49.86852" lon="5.35204">
        <ele>377</ele>
        <time>2018-02-04T11:01:09Z</time>
      </trkpt>
      <trkpt lat="49.86853" lon="5.35204">
        <ele>377</ele>
        <time>2018-02-04T11:01:19Z</time>
      </trkpt>
      <trkpt lat="49.86853" lon="5.35205">
        <ele>377</ele>
        <time>2018-02-04T11:01:30Z</time>
      </trkpt>
      <trkpt lat="49.86852" lon="5.35207">
        <ele>377</ele>
        <time>2018-02-04T11:01:40Z</time>
      </trkpt>
      <trkpt lat="49.8685" lon="5.35206">
        <ele>378</ele>
        <time>2018-02-04T11:01:51Z</time>
      </trkpt>
      <trkpt lat="49.8685" lon="5.35205">
        <ele>377</ele>
        <time>2018-02-04T11:02:01Z</time>
      </trkpt>
      <trkpt lat="49.86851" lon="5.35205">
        <ele>377</ele>
        <time>2018-02-04T11:02:12Z</time>
      </trkpt>
      <trkpt lat="49.86851" lon="5.35204">
        <ele>377</ele>
        <time>2018-02-04T11:02:22Z</time>
      </trkpt>
      <trkpt lat="49.86851" lon="5.35204">
        <ele>377</ele>
        <time>2018-02-04T11:02:33Z</time>
      </trkpt>
      <trkpt lat="49.86851" lon="5.35204">
        <ele>377</ele>
        <time>2018-02-04T11:02:43Z</time>
      </trkpt>
      <trkpt lat="49.86854" lon="5.35201">
        <ele>377</ele>
        <time>2018-02-04T11:02:54Z</time>
      </trkpt>
      <trkpt lat="49.86855" lon="5.35198">
        <ele>377</ele>
        <time>2018-02-04T11:03:04Z</time>
      </trkpt>
      <trkpt lat="49.86855" lon="5.35199">
        <ele>377</ele>
        <time>2018-02-04T11:03:15Z</time>
      </trkpt>
      <trkpt lat="49.86858" lon="5.35197">
        <ele>377</ele>
        <time>2018-02-04T11:03:25Z</time>
      </trkpt>
      <trkpt lat="49.86858" lon="5.35198">
        <ele>376</ele>
        <time>2018-02-04T11:03:37Z</time>
      </trkpt>
      <trkpt lat="49.86859" lon="5.352">
        <ele>376</ele>
        <time>2018-02-04T11:03:48Z</time>
      </trkpt>
      <trkpt lat="49.8686" lon="5.35202">
        <ele>377</ele>
        <time>2018-02-04T11:03:58Z</time>
      </trkpt>
      <trkpt lat="49.86859" lon="5.35204">
        <ele>376</ele>
        <time>2018-02-04T11:04:11Z</time>
      </trkpt>
      <trkpt lat="49.86859" lon="5.35203">
        <ele>377</ele>
        <time>2018-02-04T11:04:22Z</time>
      </trkpt>
      <trkpt lat="49.86857" lon="5.35204">
        <ele>377</ele>
        <time>2018-02-04T11:04:33Z</time>
      </trkpt>
      <trkpt lat="49.86855" lon="5.35205">
        <ele>377</ele>
        <time>2018-02-04T11:04:43Z</time>
      </trkpt>
      <trkpt lat="49.86857" lon="5.35203">
        <ele>377</ele>
        <time>2018-02-04T11:04:54Z</time>
      </trkpt>
      <trkpt lat="49.86858" lon="5.35202">
        <ele>377</ele>
        <time>2018-02-04T11:05:04Z</time>
      </trkpt>
      <trkpt lat="49.86857" lon="5.35202">
        <ele>376</ele>
        <time>2018-02-04T11:05:15Z</time>
      </trkpt>
      <trkpt lat="49.86856" lon="5.352">
        <ele>377</ele>
        <time>2018-02-04T11:05:26Z</time>
      </trkpt>
      <trkpt lat="49.86856" lon="5.352">
        <ele>376</ele>
        <time>2018-02-04T11:05:37Z</time>
      </trkpt>
      <trkpt lat="49.86856" lon="5.35199">
        <ele>376</ele>
        <time>2018-02-04T11:05:48Z</time>
      </trkpt>
      <trkpt lat="49.86855" lon="5.35199">
        <ele>376</ele>
        <time>2018-02-04T11:05:58Z</time>
      </trkpt>
      <trkpt lat="49.86854" lon="5.35199">
        <ele>376</ele>
        <time>2018-02-04T11:06:08Z</time>
      </trkpt>
      <trkpt lat="49.86853" lon="5.35201">
        <ele>377</ele>
        <time>2018-02-04T11:06:18Z</time>
      </trkpt>
      <trkpt lat="49.86854" lon="5.35201">
        <ele>377</ele>
        <time>2018-02-04T11:06:28Z</time>
      </trkpt>
      <trkpt lat="49.86852" lon="5.35198">
        <ele>377</ele>
        <time>2018-02-04T11:06:39Z</time>
      </trkpt>
      <trkpt lat="49.86852" lon="5.35194">
        <ele>377</ele>
        <time>2018-02-04T11:06:49Z</time>
      </trkpt>
      <trkpt lat="49.86849" lon="5.35197">
        <ele>377</ele>
        <time>2018-02-04T11:06:59Z</time>
      </trkpt>
      <trkpt lat="49.86849" lon="5.35198">
        <ele>377</ele>
        <time>2018-02-04T11:07:10Z</time>
      </trkpt>
      <trkpt lat="49.8685" lon="5.35198">
        <ele>377</ele>
        <time>2018-02-04T11:07:21Z</time>
      </trkpt>
      <trkpt lat="49.86851" lon="5.35195">
        <ele>376</ele>
        <time>2018-02-04T11:07:31Z</time>
      </trkpt>
      <trkpt lat="49.86851" lon="5.35196">
        <ele>377</ele>
        <time>2018-02-04T11:07:43Z</time>
      </trkpt>
      <trkpt lat="49.86852" lon="5.35197">
        <ele>376</ele>
        <time>2018-02-04T11:07:54Z</time>
      </trkpt>
      <trkpt lat="49.86852" lon="5.35198">
        <ele>376</ele>
        <time>2018-02-04T11:08:05Z</time>
      </trkpt>
      <trkpt lat="49.8685" lon="5.35202">
        <ele>377</ele>
        <time>2018-02-04T11:08:16Z</time>
      </trkpt>
      <trkpt lat="49.86848" lon="5.35204">
        <ele>376</ele>
        <time>2018-02-04T11:08:27Z</time>
      </trkpt>
      <trkpt lat="49.86847" lon="5.35207">
        <ele>376</ele>
        <time>2018-02-04T11:08:39Z</time>
      </trkpt>
      <trkpt lat="49.86848" lon="5.35207">
        <ele>376</ele>
        <time>2018-02-04T11:08:50Z</time>
      </trkpt>
      <trkpt lat="49.86851" lon="5.35205">
        <ele>376</ele>
        <time>2018-02-04T11:09:00Z</time>
      </trkpt>
      <trkpt lat="49.86854" lon="5.35201">
        <ele>376</ele>
        <time>2018-02-04T11:09:11Z</time>
      </trkpt>
      <trkpt lat="49.86853" lon="5.35201">
        <ele>376</ele>
        <time>2018-02-04T11:09:21Z</time>
      </trkpt>
      <trkpt lat="49.86853" lon="5.35202">
        <ele>376</ele>
        <time>2018-02-04T11:09:32Z</time>
      </trkpt>
      <trkpt lat="49.86851" lon="5.35195">
        <ele>376</ele>
        <time>2018-02-04T11:09:42Z</time>
      </trkpt>
      <trkpt lat="49.8685" lon="5.35183">
        <ele>377</ele>
        <time>2018-02-04T11:09:52Z</time>
      </trkpt>
      <trkpt lat="49.86849" lon="5.35167">
        <ele>378</ele>
        <time>2018-02-04T11:10:03Z</time>
      </trkpt>
      <trkpt lat="49.86848" lon="5.35146">
        <ele>378</ele>
        <time>2018-02-04T11:10:13Z</time>
      </trkpt>
      <trkpt lat="49.8685" lon="5.35126">
        <ele>379</ele>
        <time>2018-02-04T11:10:23Z</time>
      </trkpt>
      <trkpt lat="49.8685" lon="5.35106">
        <ele>381</ele>
        <time>2018-02-04T11:10:33Z</time>
      </trkpt>
      <trkpt lat="49.8685" lon="5.35082">
        <ele>382</ele>
        <time>2018-02-04T11:10:44Z</time>
      </trkpt>
      <trkpt lat="49.86851" lon="5.35061">
        <ele>383</ele>
        <time>2018-02-04T11:10:54Z</time>
      </trkpt>
      <trkpt lat="49.86851" lon="5.35041">
        <ele>383</ele>
        <time>2018-02-04T11:11:04Z</time>
      </trkpt>
      <trkpt lat="49.86852" lon="5.35021">
        <ele>385</ele>
        <time>2018-02-04T11:11:15Z</time>
      </trkpt>
      <trkpt lat="49.86851" lon="5.35006">
        <ele>386</ele>
        <time>2018-02-04T11:11:25Z</time>
      </trkpt>
      <trkpt lat="49.8685" lon="5.34984">
        <ele>387</ele>
        <time>2018-02-04T11:11:36Z</time>
      </trkpt>
      <trkpt lat="49.86851" lon="5.34965">
        <ele>387</ele>
        <time>2018-02-04T11:11:47Z</time>
      </trkpt>
      <trkpt lat="49.8685" lon="5.34962">
        <ele>388</ele>
        <time>2018-02-04T11:11:57Z</time>
      </trkpt>
      <trkpt lat="49.86847" lon="5.34953">
        <ele>388</ele>
        <time>2018-02-04T11:12:07Z</time>
      </trkpt>
      <trkpt lat="49.86845" lon="5.34934">
        <ele>389</ele>
        <time>2018-02-04T11:12:18Z</time>
      </trkpt>
      <trkpt lat="49.86848" lon="5.34914">
        <ele>389</ele>
        <time>2018-02-04T11:12:28Z</time>
      </trkpt>
      <trkpt lat="49.86848" lon="5.34895">
        <ele>389</ele>
        <time>2018-02-04T11:12:38Z</time>
      </trkpt>
      <trkpt lat="49.86849" lon="5.34873">
        <ele>390</ele>
        <time>2018-02-04T11:12:49Z</time>
      </trkpt>
      <trkpt lat="49.86848" lon="5.34852">
        <ele>390</ele>
        <time>2018-02-04T11:13:00Z</time>
      </trkpt>
      <trkpt lat="49.86847" lon="5.3483">
        <ele>390</ele>
        <time>2018-02-04T11:13:10Z</time>
      </trkpt>
      <trkpt lat="49.86847" lon="5.34809">
        <ele>391</ele>
        <time>2018-02-04T11:13:20Z</time>
      </trkpt>
      <trkpt lat="49.86848" lon="5.34789">
        <ele>391</ele>
        <time>2018-02-04T11:13:31Z</time>
      </trkpt>
      <trkpt lat="49.86847" lon="5.34767">
        <ele>392</ele>
        <time>2018-02-04T11:13:41Z</time>
      </trkpt>
      <trkpt lat="49.86848" lon="5.34744">
        <ele>392</ele>
        <time>2018-02-04T11:13:52Z</time>
      </trkpt>
      <trkpt lat="49.86847" lon="5.34725">
        <ele>392</ele>
        <time>2018-02-04T11:14:02Z</time>
      </trkpt>
      <trkpt lat="49.86852" lon="5.34706">
        <ele>392</ele>
        <time>2018-02-04T11:14:13Z</time>
      </trkpt>
      <trkpt lat="49.8686" lon="5.34695">
        <ele>391</ele>
        <time>2018-02-04T11:14:23Z</time>
      </trkpt>
      <trkpt lat="49.86866" lon="5.34683">
        <ele>390</ele>
        <time>2018-02-04T11:14:33Z</time>
      </trkpt>
      <trkpt lat="49.86872" lon="5.34667">
        <ele>390</ele>
        <time>2018-02-04T11:14:44Z</time>
      </trkpt>
      <trkpt lat="49.86878" lon="5.34652">
        <ele>391</ele>
        <time>2018-02-04T11:14:54Z</time>
      </trkpt>
      <trkpt lat="49.86887" lon="5.34634">
        <ele>390</ele>
        <time>2018-02-04T11:15:05Z</time>
      </trkpt>
      <trkpt lat="49.8689" lon="5.34619">
        <ele>390</ele>
        <time>2018-02-04T11:15:15Z</time>
      </trkpt>
      <trkpt lat="49.86898" lon="5.34605">
        <ele>390</ele>
        <time>2018-02-04T11:15:26Z</time>
      </trkpt>
      <trkpt lat="49.86905" lon="5.34592">
        <ele>389</ele>
        <time>2018-02-04T11:15:36Z</time>
      </trkpt>
      <trkpt lat="49.86912" lon="5.34576">
        <ele>389</ele>
        <time>2018-02-04T11:15:46Z</time>
      </trkpt>
      <trkpt lat="49.86919" lon="5.34558">
        <ele>389</ele>
        <time>2018-02-04T11:15:57Z</time>
      </trkpt>
      <trkpt lat="49.86923" lon="5.34542">
        <ele>389</ele>
        <time>2018-02-04T11:16:07Z</time>
      </trkpt>
      <trkpt lat="49.86932" lon="5.34525">
        <ele>389</ele>
        <time>2018-02-04T11:16:18Z</time>
      </trkpt>
      <trkpt lat="49.8694" lon="5.3451">
        <ele>389</ele>
        <time>2018-02-04T11:16:28Z</time>
      </trkpt>
      <trkpt lat="49.86947" lon="5.34496">
        <ele>388</ele>
        <time>2018-02-04T11:16:38Z</time>
      </trkpt>
      <trkpt lat="49.86955" lon="5.34482">
        <ele>388</ele>
        <time>2018-02-04T11:16:48Z</time>
      </trkpt>
      <trkpt lat="49.86964" lon="5.34467">
        <ele>388</ele>
        <time>2018-02-04T11:16:59Z</time>
      </trkpt>
      <trkpt lat="49.86974" lon="5.34458">
        <ele>388</ele>
        <time>2018-02-04T11:17:09Z</time>
      </trkpt>
      <trkpt lat="49.86985" lon="5.34447">
        <ele>388</ele>
        <time>2018-02-04T11:17:20Z</time>
      </trkpt>
      <trkpt lat="49.86996" lon="5.3444">
        <ele>390</ele>
        <time>2018-02-04T11:17:30Z</time>
      </trkpt>
      <trkpt lat="49.87008" lon="5.34431">
        <ele>390</ele>
        <time>2018-02-04T11:17:41Z</time>
      </trkpt>
      <trkpt lat="49.87014" lon="5.34418">
        <ele>392</ele>
        <time>2018-02-04T11:17:51Z</time>
      </trkpt>
      <trkpt lat="49.87019" lon="5.34403">
        <ele>393</ele>
        <time>2018-02-04T11:18:02Z</time>
      </trkpt>
      <trkpt lat="49.87024" lon="5.34389">
        <ele>393</ele>
        <time>2018-02-04T11:18:12Z</time>
      </trkpt>
      <trkpt lat="49.87028" lon="5.34379">
        <ele>394</ele>
        <time>2018-02-04T11:18:22Z</time>
      </trkpt>
      <trkpt lat="49.87032" lon="5.3437">
        <ele>394</ele>
        <time>2018-02-04T11:18:33Z</time>
      </trkpt>
      <trkpt lat="49.87039" lon="5.34354">
        <ele>394</ele>
        <time>2018-02-04T11:18:44Z</time>
      </trkpt>
      <trkpt lat="49.87046" lon="5.34341">
        <ele>395</ele>
        <time>2018-02-04T11:18:54Z</time>
      </trkpt>
      <trkpt lat="49.87053" lon="5.34328">
        <ele>395</ele>
        <time>2018-02-04T11:19:04Z</time>
      </trkpt>
      <trkpt lat="49.87058" lon="5.34313">
        <ele>395</ele>
        <time>2018-02-04T11:19:15Z</time>
      </trkpt>
      <trkpt lat="49.87062" lon="5.34298">
        <ele>396</ele>
        <time>2018-02-04T11:19:25Z</time>
      </trkpt>
      <trkpt lat="49.87066" lon="5.34281">
        <ele>397</ele>
        <time>2018-02-04T11:19:35Z</time>
      </trkpt>
      <trkpt lat="49.8707" lon="5.34264">
        <ele>398</ele>
        <time>2018-02-04T11:19:46Z</time>
      </trkpt>
      <trkpt lat="49.87074" lon="5.34246">
        <ele>398</ele>
        <time>2018-02-04T11:19:56Z</time>
      </trkpt>
      <trkpt lat="49.87075" lon="5.34229">
        <ele>398</ele>
        <time>2018-02-04T11:20:06Z</time>
      </trkpt>
      <trkpt lat="49.87072" lon="5.34213">
        <ele>398</ele>
        <time>2018-02-04T11:20:16Z</time>
      </trkpt>
      <trkpt lat="49.87067" lon="5.34198">
        <ele>399</ele>
        <time>2018-02-04T11:20:27Z</time>
      </trkpt>
      <trkpt lat="49.8706" lon="5.3418">
        <ele>399</ele>
        <time>2018-02-04T11:20:37Z</time>
      </trkpt>
      <trkpt lat="49.87051" lon="5.34166">
        <ele>400</ele>
        <time>2018-02-04T11:20:47Z</time>
      </trkpt>
      <trkpt lat="49.87044" lon="5.34151">
        <ele>401</ele>
        <time>2018-02-04T11:20:57Z</time>
      </trkpt>
      <trkpt lat="49.87035" lon="5.34138">
        <ele>401</ele>
        <time>2018-02-04T11:21:08Z</time>
      </trkpt>
      <trkpt lat="49.87022" lon="5.34136">
        <ele>401</ele>
        <time>2018-02-04T11:21:18Z</time>
      </trkpt>
      <trkpt lat="49.87019" lon="5.3414">
        <ele>403</ele>
        <time>2018-02-04T11:21:28Z</time>
      </trkpt>
      <trkpt lat="49.87012" lon="5.3415">
        <ele>402</ele>
        <time>2018-02-04T11:21:38Z</time>
      </trkpt>
      <trkpt lat="49.87005" lon="5.34159">
        <ele>403</ele>
        <time>2018-02-04T11:21:49Z</time>
      </trkpt>
      <trkpt lat="49.86997" lon="5.34166">
        <ele>403</ele>
        <time>2018-02-04T11:21:59Z</time>
      </trkpt>
      <trkpt lat="49.86988" lon="5.34175">
        <ele>402</ele>
        <time>2018-02-04T11:22:09Z</time>
      </trkpt>
      <trkpt lat="49.86974" lon="5.34183">
        <ele>402</ele>
        <time>2018-02-04T11:22:20Z</time>
      </trkpt>
      <trkpt lat="49.86964" lon="5.34189">
        <ele>401</ele>
        <time>2018-02-04T11:22:30Z</time>
      </trkpt>
      <trkpt lat="49.86954" lon="5.34198">
        <ele>401</ele>
        <time>2018-02-04T11:22:41Z</time>
      </trkpt>
      <trkpt lat="49.86944" lon="5.34206">
        <ele>400</ele>
        <time>2018-02-04T11:22:51Z</time>
      </trkpt>
      <trkpt lat="49.86934" lon="5.34214">
        <ele>400</ele>
        <time>2018-02-04T11:23:01Z</time>
      </trkpt>
      <trkpt lat="49.86923" lon="5.34221">
        <ele>401</ele>
        <time>2018-02-04T11:23:12Z</time>
      </trkpt>
      <trkpt lat="49.86911" lon="5.34229">
        <ele>400</ele>
        <time>2018-02-04T11:23:22Z</time>
      </trkpt>
      <trkpt lat="49.86901" lon="5.34239">
        <ele>400</ele>
        <time>2018-02-04T11:23:32Z</time>
      </trkpt>
      <trkpt lat="49.86891" lon="5.34247">
        <ele>400</ele>
        <time>2018-02-04T11:23:43Z</time>
      </trkpt>
      <trkpt lat="49.86881" lon="5.34253">
        <ele>400</ele>
        <time>2018-02-04T11:23:54Z</time>
      </trkpt>
      <trkpt lat="49.8687" lon="5.34261">
        <ele>401</ele>
        <time>2018-02-04T11:24:04Z</time>
      </trkpt>
      <trkpt lat="49.86858" lon="5.34272">
        <ele>402</ele>
        <time>2018-02-04T11:24:14Z</time>
      </trkpt>
      <trkpt lat="49.86846" lon="5.34288">
        <ele>402</ele>
        <time>2018-02-04T11:24:25Z</time>
      </trkpt>
      <trkpt lat="49.86835" lon="5.34297">
        <ele>402</ele>
        <time>2018-02-04T11:24:36Z</time>
      </trkpt>
      <trkpt lat="49.86825" lon="5.34303">
        <ele>402</ele>
        <time>2018-02-04T11:24:46Z</time>
      </trkpt>
      <trkpt lat="49.86814" lon="5.34313">
        <ele>403</ele>
        <time>2018-02-04T11:24:57Z</time>
      </trkpt>
      <trkpt lat="49.86804" lon="5.34318">
        <ele>403</ele>
        <time>2018-02-04T11:25:08Z</time>
      </trkpt>
      <trkpt lat="49.86796" lon="5.34327">
        <ele>403</ele>
        <time>2018-02-04T11:25:19Z</time>
      </trkpt>
      <trkpt lat="49.86786" lon="5.34337">
        <ele>403</ele>
        <time>2018-02-04T11:25:29Z</time>
      </trkpt>
      <trkpt lat="49.86776" lon="5.34347">
        <ele>402</ele>
        <time>2018-02-04T11:25:39Z</time>
      </trkpt>
      <trkpt lat="49.86768" lon="5.34364">
        <ele>401</ele>
        <time>2018-02-04T11:25:50Z</time>
      </trkpt>
      <trkpt lat="49.86763" lon="5.34378">
        <ele>400</ele>
        <time>2018-02-04T11:26:00Z</time>
      </trkpt>
      <trkpt lat="49.86759" lon="5.34394">
        <ele>401</ele>
        <time>2018-02-04T11:26:10Z</time>
      </trkpt>
      <trkpt lat="49.86757" lon="5.3441">
        <ele>400</ele>
        <time>2018-02-04T11:26:20Z</time>
      </trkpt>
      <trkpt lat="49.86755" lon="5.34429">
        <ele>400</ele>
        <time>2018-02-04T11:26:30Z</time>
      </trkpt>
      <trkpt lat="49.86752" lon="5.34448">
        <ele>400</ele>
        <time>2018-02-04T11:26:40Z</time>
      </trkpt>
      <trkpt lat="49.86749" lon="5.34468">
        <ele>400</ele>
        <time>2018-02-04T11:26:51Z</time>
      </trkpt>
      <trkpt lat="49.86746" lon="5.34485">
        <ele>399</ele>
        <time>2018-02-04T11:27:01Z</time>
      </trkpt>
      <trkpt lat="49.86742" lon="5.34504">
        <ele>398</ele>
        <time>2018-02-04T11:27:12Z</time>
      </trkpt>
      <trkpt lat="49.86738" lon="5.34522">
        <ele>398</ele>
        <time>2018-02-04T11:27:23Z</time>
      </trkpt>
      <trkpt lat="49.86732" lon="5.34539">
        <ele>397</ele>
        <time>2018-02-04T11:27:33Z</time>
      </trkpt>
      <trkpt lat="49.86724" lon="5.34557">
        <ele>396</ele>
        <time>2018-02-04T11:27:44Z</time>
      </trkpt>
      <trkpt lat="49.8672" lon="5.34572">
        <ele>396</ele>
        <time>2018-02-04T11:27:54Z</time>
      </trkpt>
      <trkpt lat="49.86713" lon="5.34589">
        <ele>395</ele>
        <time>2018-02-04T11:28:05Z</time>
      </trkpt>
      <trkpt lat="49.86708" lon="5.34604">
        <ele>395</ele>
        <time>2018-02-04T11:28:15Z</time>
      </trkpt>
      <trkpt lat="49.86702" lon="5.34618">
        <ele>394</ele>
        <time>2018-02-04T11:28:25Z</time>
      </trkpt>
      <trkpt lat="49.86695" lon="5.34635">
        <ele>395</ele>
        <time>2018-02-04T11:28:36Z</time>
      </trkpt>
      <trkpt lat="49.86692" lon="5.34644">
        <ele>394</ele>
        <time>2018-02-04T11:28:46Z</time>
      </trkpt>
      <trkpt lat="49.86684" lon="5.34658">
        <ele>394</ele>
        <time>2018-02-04T11:28:56Z</time>
      </trkpt>
      <trkpt lat="49.86677" lon="5.34672">
        <ele>393</ele>
        <time>2018-02-04T11:29:06Z</time>
      </trkpt>
      <trkpt lat="49.86667" lon="5.34687">
        <ele>393</ele>
        <time>2018-02-04T11:29:16Z</time>
      </trkpt>
      <trkpt lat="49.86654" lon="5.34705">
        <ele>393</ele>
        <time>2018-02-04T11:29:27Z</time>
      </trkpt>
      <trkpt lat="49.86645" lon="5.34724">
        <ele>392</ele>
        <time>2018-02-04T11:29:37Z</time>
      </trkpt>
      <trkpt lat="49.86637" lon="5.3474">
        <ele>392</ele>
        <time>2018-02-04T11:29:47Z</time>
      </trkpt>
      <trkpt lat="49.86631" lon="5.34756">
        <ele>392</ele>
        <time>2018-02-04T11:29:57Z</time>
      </trkpt>
      <trkpt lat="49.86623" lon="5.34772">
        <ele>391</ele>
        <time>2018-02-04T11:30:08Z</time>
      </trkpt>
      <trkpt lat="49.86617" lon="5.3479">
        <ele>391</ele>
        <time>2018-02-04T11:30:19Z</time>
      </trkpt>
      <trkpt lat="49.8661" lon="5.34807">
        <ele>391</ele>
        <time>2018-02-04T11:30:29Z</time>
      </trkpt>
      <trkpt lat="49.86605" lon="5.34824">
        <ele>391</ele>
        <time>2018-02-04T11:30:39Z</time>
      </trkpt>
      <trkpt lat="49.86598" lon="5.34843">
        <ele>391</ele>
        <time>2018-02-04T11:30:50Z</time>
      </trkpt>
      <trkpt lat="49.86593" lon="5.34861">
        <ele>391</ele>
        <time>2018-02-04T11:31:00Z</time>
      </trkpt>
      <trkpt lat="49.86587" lon="5.34879">
        <ele>391</ele>
        <time>2018-02-04T11:31:10Z</time>
      </trkpt>
      <trkpt lat="49.86581" lon="5.34899">
        <ele>391</ele>
        <time>2018-02-04T11:31:21Z</time>
      </trkpt>
      <trkpt lat="49.86576" lon="5.34917">
        <ele>390</ele>
        <time>2018-02-04T11:31:31Z</time>
      </trkpt>
      <trkpt lat="49.86572" lon="5.34934">
        <ele>390</ele>
        <time>2018-02-04T11:31:41Z</time>
      </trkpt>
      <trkpt lat="49.86565" lon="5.34953">
        <ele>389</ele>
        <time>2018-02-04T11:31:52Z</time>
      </trkpt>
      <trkpt lat="49.8656" lon="5.34972">
        <ele>388</ele>
        <time>2018-02-04T11:32:02Z</time>
      </trkpt>
      <trkpt lat="49.86556" lon="5.34989">
        <ele>387</ele>
        <time>2018-02-04T11:32:12Z</time>
      </trkpt>
      <trkpt lat="49.86552" lon="5.35007">
        <ele>387</ele>
        <time>2018-02-04T11:32:23Z</time>
      </trkpt>
      <trkpt lat="49.86549" lon="5.35025">
        <ele>387</ele>
        <time>2018-02-04T11:32:33Z</time>
      </trkpt>
      <trkpt lat="49.86544" lon="5.35045">
        <ele>386</ele>
        <time>2018-02-04T11:32:44Z</time>
      </trkpt>
      <trkpt lat="49.8654" lon="5.3506">
        <ele>386</ele>
        <time>2018-02-04T11:32:54Z</time>
      </trkpt>
      <trkpt lat="49.86536" lon="5.35078">
        <ele>386</ele>
        <time>2018-02-04T11:33:04Z</time>
      </trkpt>
      <trkpt lat="49.86531" lon="5.35098">
        <ele>384</ele>
        <time>2018-02-04T11:33:15Z</time>
      </trkpt>
      <trkpt lat="49.86526" lon="5.35118">
        <ele>385</ele>
        <time>2018-02-04T11:33:26Z</time>
      </trkpt>
      <trkpt lat="49.86524" lon="5.35135">
        <ele>383</ele>
        <time>2018-02-04T11:33:36Z</time>
      </trkpt>
      <trkpt lat="49.8652" lon="5.35152">
        <ele>383</ele>
        <time>2018-02-04T11:33:46Z</time>
      </trkpt>
      <trkpt lat="49.86515" lon="5.35169">
        <ele>382</ele>
        <time>2018-02-04T11:33:57Z</time>
      </trkpt>
      <trkpt lat="49.8651" lon="5.35186">
        <ele>381</ele>
        <time>2018-02-04T11:34:07Z</time>
      </trkpt>
      <trkpt lat="49.86505" lon="5.35205">
        <ele>381</ele>
        <time>2018-02-04T11:34:18Z</time>
      </trkpt>
      <trkpt lat="49.86499" lon="5.35223">
        <ele>381</ele>
        <time>2018-02-04T11:34:29Z</time>
      </trkpt>
      <trkpt lat="49.86495" lon="5.35239">
        <ele>380</ele>
        <time>2018-02-04T11:34:39Z</time>
      </trkpt>
      <trkpt lat="49.8649" lon="5.35254">
        <ele>380</ele>
        <time>2018-02-04T11:34:49Z</time>
      </trkpt>
      <trkpt lat="49.86482" lon="5.35267">
        <ele>380</ele>
        <time>2018-02-04T11:34:59Z</time>
      </trkpt>
      <trkpt lat="49.86477" lon="5.35284">
        <ele>380</ele>
        <time>2018-02-04T11:35:09Z</time>
      </trkpt>
      <trkpt lat="49.86471" lon="5.35302">
        <ele>380</ele>
        <time>2018-02-04T11:35:20Z</time>
      </trkpt>
      <trkpt lat="49.86465" lon="5.35318">
        <ele>380</ele>
        <time>2018-02-04T11:35:31Z</time>
      </trkpt>
      <trkpt lat="49.86459" lon="5.35332">
        <ele>381</ele>
        <time>2018-02-04T11:35:41Z</time>
      </trkpt>
      <trkpt lat="49.86452" lon="5.35347">
        <ele>381</ele>
        <time>2018-02-04T11:35:51Z</time>
      </trkpt>
      <trkpt lat="49.86441" lon="5.35363">
        <ele>382</ele>
        <time>2018-02-04T11:36:02Z</time>
      </trkpt>
      <trkpt lat="49.86432" lon="5.35376">
        <ele>382</ele>
        <time>2018-02-04T11:36:12Z</time>
      </trkpt>
      <trkpt lat="49.86423" lon="5.35389">
        <ele>382</ele>
        <time>2018-02-04T11:36:22Z</time>
      </trkpt>
      <trkpt lat="49.86416" lon="5.35401">
        <ele>382</ele>
        <time>2018-02-04T11:36:32Z</time>
      </trkpt>
      <trkpt lat="49.86408" lon="5.35411">
        <ele>381</ele>
        <time>2018-02-04T11:36:43Z</time>
      </trkpt>
      <trkpt lat="49.86398" lon="5.35425">
        <ele>381</ele>
        <time>2018-02-04T11:36:53Z</time>
      </trkpt>
      <trkpt lat="49.86387" lon="5.35437">
        <ele>381</ele>
        <time>2018-02-04T11:37:04Z</time>
      </trkpt>
      <trkpt lat="49.86374" lon="5.35448">
        <ele>381</ele>
        <time>2018-02-04T11:37:15Z</time>
      </trkpt>
      <trkpt lat="49.86365" lon="5.35456">
        <ele>382</ele>
        <time>2018-02-04T11:37:25Z</time>
      </trkpt>
      <trkpt lat="49.86353" lon="5.35466">
        <ele>381</ele>
        <time>2018-02-04T11:37:36Z</time>
      </trkpt>
      <trkpt lat="49.86344" lon="5.35472">
        <ele>381</ele>
        <time>2018-02-04T11:37:46Z</time>
      </trkpt>
      <trkpt lat="49.86332" lon="5.35483">
        <ele>381</ele>
        <time>2018-02-04T11:37:56Z</time>
      </trkpt>
      <trkpt lat="49.86321" lon="5.35493">
        <ele>381</ele>
        <time>2018-02-04T11:38:07Z</time>
      </trkpt>
      <trkpt lat="49.86308" lon="5.35502">
        <ele>380</ele>
        <time>2018-02-04T11:38:18Z</time>
      </trkpt>
      <trkpt lat="49.86296" lon="5.3551">
        <ele>379</ele>
        <time>2018-02-04T11:38:28Z</time>
      </trkpt>
      <trkpt lat="49.86285" lon="5.35518">
        <ele>378</ele>
        <time>2018-02-04T11:38:38Z</time>
      </trkpt>
      <trkpt lat="49.86273" lon="5.35526">
        <ele>378</ele>
        <time>2018-02-04T11:38:48Z</time>
      </trkpt>
      <trkpt lat="49.86259" lon="5.35535">
        <ele>378</ele>
        <time>2018-02-04T11:38:58Z</time>
      </trkpt>
      <trkpt lat="49.86246" lon="5.35544">
        <ele>377</ele>
        <time>2018-02-04T11:39:08Z</time>
      </trkpt>
      <trkpt lat="49.86234" lon="5.35554">
        <ele>378</ele>
        <time>2018-02-04T11:39:18Z</time>
      </trkpt>
      <trkpt lat="49.86221" lon="5.35566">
        <ele>378</ele>
        <time>2018-02-04T11:39:29Z</time>
      </trkpt>
      <trkpt lat="49.86209" lon="5.35576">
        <ele>379</ele>
        <time>2018-02-04T11:39:39Z</time>
      </trkpt>
      <trkpt lat="49.86198" lon="5.35589">
        <ele>378</ele>
        <time>2018-02-04T11:39:49Z</time>
      </trkpt>
      <trkpt lat="49.86189" lon="5.35603">
        <ele>379</ele>
        <time>2018-02-04T11:39:59Z</time>
      </trkpt>
      <trkpt lat="49.8618" lon="5.35619">
        <ele>377</ele>
        <time>2018-02-04T11:40:09Z</time>
      </trkpt>
      <trkpt lat="49.86171" lon="5.35636">
        <ele>377</ele>
        <time>2018-02-04T11:40:20Z</time>
      </trkpt>
      <trkpt lat="49.86164" lon="5.35653">
        <ele>377</ele>
        <time>2018-02-04T11:40:30Z</time>
      </trkpt>
      <trkpt lat="49.86156" lon="5.35672">
        <ele>377</ele>
        <time>2018-02-04T11:40:41Z</time>
      </trkpt>
      <trkpt lat="49.8615" lon="5.35688">
        <ele>375</ele>
        <time>2018-02-04T11:40:52Z</time>
      </trkpt>
      <trkpt lat="49.86145" lon="5.35706">
        <ele>375</ele>
        <time>2018-02-04T11:41:02Z</time>
      </trkpt>
      <trkpt lat="49.86141" lon="5.35726">
        <ele>374</ele>
        <time>2018-02-04T11:41:12Z</time>
      </trkpt>
      <trkpt lat="49.86136" lon="5.35744">
        <ele>374</ele>
        <time>2018-02-04T11:41:22Z</time>
      </trkpt>
      <trkpt lat="49.86132" lon="5.35764">
        <ele>373</ele>
        <time>2018-02-04T11:41:33Z</time>
      </trkpt>
      <trkpt lat="49.86127" lon="5.35783">
        <ele>373</ele>
        <time>2018-02-04T11:41:43Z</time>
      </trkpt>
      <trkpt lat="49.86122" lon="5.35801">
        <ele>372</ele>
        <time>2018-02-04T11:41:53Z</time>
      </trkpt>
      <trkpt lat="49.86117" lon="5.3582">
        <ele>371</ele>
        <time>2018-02-04T11:42:03Z</time>
      </trkpt>
      <trkpt lat="49.86112" lon="5.35838">
        <ele>371</ele>
        <time>2018-02-04T11:42:14Z</time>
      </trkpt>
      <trkpt lat="49.86108" lon="5.35856">
        <ele>370</ele>
        <time>2018-02-04T11:42:25Z</time>
      </trkpt>
      <trkpt lat="49.86104" lon="5.35873">
        <ele>369</ele>
        <time>2018-02-04T11:42:35Z</time>
      </trkpt>
      <trkpt lat="49.86101" lon="5.35889">
        <ele>369</ele>
        <time>2018-02-04T11:42:45Z</time>
      </trkpt>
      <trkpt lat="49.86095" lon="5.35908">
        <ele>368</ele>
        <time>2018-02-04T11:42:55Z</time>
      </trkpt>
      <trkpt lat="49.86094" lon="5.35927">
        <ele>367</ele>
        <time>2018-02-04T11:43:06Z</time>
      </trkpt>
      <trkpt lat="49.8609" lon="5.35945">
        <ele>367</ele>
        <time>2018-02-04T11:43:16Z</time>
      </trkpt>
      <trkpt lat="49.86084" lon="5.35963">
        <ele>366</ele>
        <time>2018-02-04T11:43:27Z</time>
      </trkpt>
      <trkpt lat="49.86079" lon="5.35976">
        <ele>366</ele>
        <time>2018-02-04T11:43:37Z</time>
      </trkpt>
      <trkpt lat="49.86079" lon="5.35981">
        <ele>365</ele>
        <time>2018-02-04T11:43:48Z</time>
      </trkpt>
      <trkpt lat="49.86076" lon="5.35994">
        <ele>365</ele>
        <time>2018-02-04T11:43:58Z</time>
      </trkpt>
      <trkpt lat="49.86071" lon="5.36012">
        <ele>364</ele>
        <time>2018-02-04T11:44:09Z</time>
      </trkpt>
      <trkpt lat="49.86066" lon="5.36029">
        <ele>363</ele>
        <time>2018-02-04T11:44:19Z</time>
      </trkpt>
      <trkpt lat="49.86062" lon="5.36046">
        <ele>362</ele>
        <time>2018-02-04T11:44:29Z</time>
      </trkpt>
      <trkpt lat="49.86055" lon="5.36065">
        <ele>362</ele>
        <time>2018-02-04T11:44:39Z</time>
      </trkpt>
      <trkpt lat="49.86048" lon="5.36085">
        <ele>361</ele>
        <time>2018-02-04T11:44:50Z</time>
      </trkpt>
      <trkpt lat="49.86044" lon="5.36101">
        <ele>360</ele>
        <time>2018-02-04T11:45:01Z</time>
      </trkpt>
      <trkpt lat="49.86037" lon="5.36121">
        <ele>360</ele>
        <time>2018-02-04T11:45:12Z</time>
      </trkpt>
      <trkpt lat="49.86031" lon="5.36138">
        <ele>359</ele>
        <time>2018-02-04T11:45:22Z</time>
      </trkpt>
      <trkpt lat="49.86026" lon="5.36155">
        <ele>358</ele>
        <time>2018-02-04T11:45:32Z</time>
      </trkpt>
      <trkpt lat="49.86018" lon="5.36173">
        <ele>357</ele>
        <time>2018-02-04T11:45:43Z</time>
      </trkpt>
      <trkpt lat="49.86008" lon="5.36192">
        <ele>358</ele>
        <time>2018-02-04T11:45:54Z</time>
      </trkpt>
      <trkpt lat="49.86" lon="5.3621">
        <ele>357</ele>
        <time>2018-02-04T11:46:04Z</time>
      </trkpt>
      <trkpt lat="49.85992" lon="5.36228">
        <ele>356</ele>
        <time>2018-02-04T11:46:14Z</time>
      </trkpt>
      <trkpt lat="49.85984" lon="5.36245">
        <ele>356</ele>
        <time>2018-02-04T11:46:25Z</time>
      </trkpt>
      <trkpt lat="49.85977" lon="5.36262">
        <ele>356</ele>
        <time>2018-02-04T11:46:35Z</time>
      </trkpt>
      <trkpt lat="49.8597" lon="5.3628">
        <ele>355</ele>
        <time>2018-02-04T11:46:45Z</time>
      </trkpt>
      <trkpt lat="49.85968" lon="5.36301">
        <ele>354</ele>
        <time>2018-02-04T11:46:55Z</time>
      </trkpt>
      <trkpt lat="49.85965" lon="5.36322">
        <ele>354</ele>
        <time>2018-02-04T11:47:06Z</time>
      </trkpt>
      <trkpt lat="49.85964" lon="5.36342">
        <ele>353</ele>
        <time>2018-02-04T11:47:17Z</time>
      </trkpt>
      <trkpt lat="49.85967" lon="5.36359">
        <ele>352</ele>
        <time>2018-02-04T11:47:27Z</time>
      </trkpt>
      <trkpt lat="49.85968" lon="5.36377">
        <ele>350</ele>
        <time>2018-02-04T11:47:38Z</time>
      </trkpt>
      <trkpt lat="49.85971" lon="5.36393">
        <ele>349</ele>
        <time>2018-02-04T11:47:48Z</time>
      </trkpt>
      <trkpt lat="49.85975" lon="5.36413">
        <ele>348</ele>
        <time>2018-02-04T11:47:59Z</time>
      </trkpt>
      <trkpt lat="49.85977" lon="5.3643">
        <ele>347</ele>
        <time>2018-02-04T11:48:09Z</time>
      </trkpt>
      <trkpt lat="49.85978" lon="5.36452">
        <ele>346</ele>
        <time>2018-02-04T11:48:20Z</time>
      </trkpt>
      <trkpt lat="49.85977" lon="5.36472">
        <ele>345</ele>
        <time>2018-02-04T11:48:30Z</time>
      </trkpt>
      <trkpt lat="49.85981" lon="5.36492">
        <ele>344</ele>
        <time>2018-02-04T11:48:40Z</time>
      </trkpt>
      <trkpt lat="49.85983" lon="5.36512">
        <ele>344</ele>
        <time>2018-02-04T11:48:50Z</time>
      </trkpt>
      <trkpt lat="49.85986" lon="5.36536">
        <ele>343</ele>
        <time>2018-02-04T11:49:01Z</time>
      </trkpt>
      <trkpt lat="49.85987" lon="5.36557">
        <ele>342</ele>
        <time>2018-02-04T11:49:11Z</time>
      </trkpt>
      <trkpt lat="49.85985" lon="5.36579">
        <ele>343</ele>
        <time>2018-02-04T11:49:21Z</time>
      </trkpt>
      <trkpt lat="49.85981" lon="5.36601">
        <ele>343</ele>
        <time>2018-02-04T11:49:32Z</time>
      </trkpt>
      <trkpt lat="49.85976" lon="5.36619">
        <ele>343</ele>
        <time>2018-02-04T11:49:42Z</time>
      </trkpt>
      <trkpt lat="49.85968" lon="5.36634">
        <ele>343</ele>
        <time>2018-02-04T11:49:52Z</time>
      </trkpt>
      <trkpt lat="49.85955" lon="5.36646">
        <ele>344</ele>
        <time>2018-02-04T11:50:02Z</time>
      </trkpt>
      <trkpt lat="49.85944" lon="5.36652">
        <ele>344</ele>
        <time>2018-02-04T11:50:13Z</time>
      </trkpt>
      <trkpt lat="49.85932" lon="5.36656">
        <ele>345</ele>
        <time>2018-02-04T11:50:23Z</time>
      </trkpt>
      <trkpt lat="49.85917" lon="5.36662">
        <ele>345</ele>
        <time>2018-02-04T11:50:34Z</time>
      </trkpt>
      <trkpt lat="49.85904" lon="5.3667">
        <ele>346</ele>
        <time>2018-02-04T11:50:44Z</time>
      </trkpt>
      <trkpt lat="49.8589" lon="5.3668">
        <ele>346</ele>
        <time>2018-02-04T11:50:55Z</time>
      </trkpt>
      <trkpt lat="49.85876" lon="5.36689">
        <ele>346</ele>
        <time>2018-02-04T11:51:06Z</time>
      </trkpt>
      <trkpt lat="49.85863" lon="5.36698">
        <ele>346</ele>
        <time>2018-02-04T11:51:16Z</time>
      </trkpt>
      <trkpt lat="49.8585" lon="5.36703">
        <ele>346</ele>
        <time>2018-02-04T11:51:27Z</time>
      </trkpt>
      <trkpt lat="49.8584" lon="5.36707">
        <ele>347</ele>
        <time>2018-02-04T11:51:37Z</time>
      </trkpt>
      <trkpt lat="49.85827" lon="5.36711">
        <ele>348</ele>
        <time>2018-02-04T11:51:47Z</time>
      </trkpt>
      <trkpt lat="49.85814" lon="5.36716">
        <ele>348</ele>
        <time>2018-02-04T11:51:58Z</time>
      </trkpt>
      <trkpt lat="49.858" lon="5.36721">
        <ele>348</ele>
        <time>2018-02-04T11:52:09Z</time>
      </trkpt>
      <trkpt lat="49.85788" lon="5.36727">
        <ele>349</ele>
        <time>2018-02-04T11:52:20Z</time>
      </trkpt>
      <trkpt lat="49.85778" lon="5.36734">
        <ele>350</ele>
        <time>2018-02-04T11:52:30Z</time>
      </trkpt>
      <trkpt lat="49.85767" lon="5.36743">
        <ele>350</ele>
        <time>2018-02-04T11:52:41Z</time>
      </trkpt>
      <trkpt lat="49.85758" lon="5.36754">
        <ele>352</ele>
        <time>2018-02-04T11:52:52Z</time>
      </trkpt>
      <trkpt lat="49.85748" lon="5.36767">
        <ele>353</ele>
        <time>2018-02-04T11:53:03Z</time>
      </trkpt>
      <trkpt lat="49.85747" lon="5.36783">
        <ele>355</ele>
        <time>2018-02-04T11:53:13Z</time>
      </trkpt>
      <trkpt lat="49.85754" lon="5.36798">
        <ele>356</ele>
        <time>2018-02-04T11:53:24Z</time>
      </trkpt>
      <trkpt lat="49.85762" lon="5.36811">
        <ele>358</ele>
        <time>2018-02-04T11:53:34Z</time>
      </trkpt>
      <trkpt lat="49.85772" lon="5.36828">
        <ele>359</ele>
        <time>2018-02-04T11:53:45Z</time>
      </trkpt>
      <trkpt lat="49.8578" lon="5.36843">
        <ele>360</ele>
        <time>2018-02-04T11:53:56Z</time>
      </trkpt>
      <trkpt lat="49.85788" lon="5.36861">
        <ele>362</ele>
        <time>2018-02-04T11:54:07Z</time>
      </trkpt>
      <trkpt lat="49.85785" lon="5.36878">
        <ele>362</ele>
        <time>2018-02-04T11:54:18Z</time>
      </trkpt>
      <trkpt lat="49.85784" lon="5.36894">
        <ele>362</ele>
        <time>2018-02-04T11:54:28Z</time>
      </trkpt>
      <trkpt lat="49.85783" lon="5.3691">
        <ele>362</ele>
        <time>2018-02-04T11:54:38Z</time>
      </trkpt>
      <trkpt lat="49.85785" lon="5.36925">
        <ele>361</ele>
        <time>2018-02-04T11:54:48Z</time>
      </trkpt>
      <trkpt lat="49.85786" lon="5.36944">
        <ele>361</ele>
        <time>2018-02-04T11:54:59Z</time>
      </trkpt>
      <trkpt lat="49.85787" lon="5.3696">
        <ele>359</ele>
        <time>2018-02-04T11:55:09Z</time>
      </trkpt>
      <trkpt lat="49.85789" lon="5.3698">
        <ele>358</ele>
        <time>2018-02-04T11:55:19Z</time>
      </trkpt>
      <trkpt lat="49.85791" lon="5.37">
        <ele>356</ele>
        <time>2018-02-04T11:55:30Z</time>
      </trkpt>
      <trkpt lat="49.85792" lon="5.37018">
        <ele>355</ele>
        <time>2018-02-04T11:55:41Z</time>
      </trkpt>
      <trkpt lat="49.85793" lon="5.37035">
        <ele>353</ele>
        <time>2018-02-04T11:55:51Z</time>
      </trkpt>
      <trkpt lat="49.85794" lon="5.37055">
        <ele>352</ele>
        <time>2018-02-04T11:56:02Z</time>
      </trkpt>
      <trkpt lat="49.85797" lon="5.37074">
        <ele>350</ele>
        <time>2018-02-04T11:56:12Z</time>
      </trkpt>
      <trkpt lat="49.85804" lon="5.37092">
        <ele>348</ele>
        <time>2018-02-04T11:56:23Z</time>
      </trkpt>
      <trkpt lat="49.85806" lon="5.37108">
        <ele>347</ele>
        <time>2018-02-04T11:56:33Z</time>
      </trkpt>
      <trkpt lat="49.85809" lon="5.37125">
        <ele>345</ele>
        <time>2018-02-04T11:56:43Z</time>
      </trkpt>
      <trkpt lat="49.8581" lon="5.37145">
        <ele>343</ele>
        <time>2018-02-04T11:56:54Z</time>
      </trkpt>
      <trkpt lat="49.85813" lon="5.37163">
        <ele>342</ele>
        <time>2018-02-04T11:57:05Z</time>
      </trkpt>
      <trkpt lat="49.85815" lon="5.3718">
        <ele>340</ele>
        <time>2018-02-04T11:57:15Z</time>
      </trkpt>
      <trkpt lat="49.85818" lon="5.37196">
        <ele>338</ele>
        <time>2018-02-04T11:57:25Z</time>
      </trkpt>
      <trkpt lat="49.85822" lon="5.37214">
        <ele>337</ele>
        <time>2018-02-04T11:57:35Z</time>
      </trkpt>
      <trkpt lat="49.85825" lon="5.37231">
        <ele>334</ele>
        <time>2018-02-04T11:57:46Z</time>
      </trkpt>
      <trkpt lat="49.85827" lon="5.37249">
        <ele>333</ele>
        <time>2018-02-04T11:57:56Z</time>
      </trkpt>
      <trkpt lat="49.85834" lon="5.37263">
        <ele>332</ele>
        <time>2018-02-04T11:58:06Z</time>
      </trkpt>
      <trkpt lat="49.8584" lon="5.37279">
        <ele>331</ele>
        <time>2018-02-04T11:58:17Z</time>
      </trkpt>
      <trkpt lat="49.85847" lon="5.37288">
        <ele>331</ele>
        <time>2018-02-04T11:58:27Z</time>
      </trkpt>
      <trkpt lat="49.85855" lon="5.37298">
        <ele>331</ele>
        <time>2018-02-04T11:58:38Z</time>
      </trkpt>
      <trkpt lat="49.85862" lon="5.37304">
        <ele>331</ele>
        <time>2018-02-04T11:58:48Z</time>
      </trkpt>
      <trkpt lat="49.85865" lon="5.37307">
        <ele>331</ele>
        <time>2018-02-04T11:58:59Z</time>
      </trkpt>
      <trkpt lat="49.85864" lon="5.37313">
        <ele>331</ele>
        <time>2018-02-04T11:59:09Z</time>
      </trkpt>
      <trkpt lat="49.85864" lon="5.37316">
        <ele>331</ele>
        <time>2018-02-04T11:59:20Z</time>
      </trkpt>
      <trkpt lat="49.85865" lon="5.37316">
        <ele>331</ele>
        <time>2018-02-04T11:59:30Z</time>
      </trkpt>
      <trkpt lat="49.85866" lon="5.37312">
        <ele>330</ele>
        <time>2018-02-04T11:59:40Z</time>
      </trkpt>
      <trkpt lat="49.85867" lon="5.37311">
        <ele>331</ele>
        <time>2018-02-04T11:59:51Z</time>
      </trkpt>
      <trkpt lat="49.85867" lon="5.37308">
        <ele>332</ele>
        <time>2018-02-04T12:00:02Z</time>
      </trkpt>
      <trkpt lat="49.85865" lon="5.37309">
        <ele>331</ele>
        <time>2018-02-04T12:00:12Z</time>
      </trkpt>
      <trkpt lat="49.85863" lon="5.37311">
        <ele>331</ele>
        <time>2018-02-04T12:00:23Z</time>
      </trkpt>
      <trkpt lat="49.85864" lon="5.37311">
        <ele>331</ele>
        <time>2018-02-04T12:00:33Z</time>
      </trkpt>
      <trkpt lat="49.85863" lon="5.37312">
        <ele>331</ele>
        <time>2018-02-04T12:00:43Z</time>
      </trkpt>
      <trkpt lat="49.85859" lon="5.37314">
        <ele>331</ele>
        <time>2018-02-04T12:00:54Z</time>
      </trkpt>
      <trkpt lat="49.85849" lon="5.37308">
        <ele>331</ele>
        <time>2018-02-04T12:01:04Z</time>
      </trkpt>
      <trkpt lat="49.85841" lon="5.37303">
        <ele>330</ele>
        <time>2018-02-04T12:01:15Z</time>
      </trkpt>
      <trkpt lat="49.85833" lon="5.37299">
        <ele>331</ele>
        <time>2018-02-04T12:01:25Z</time>
      </trkpt>
      <trkpt lat="49.85823" lon="5.37288">
        <ele>330</ele>
        <time>2018-02-04T12:01:36Z</time>
      </trkpt>
      <trkpt lat="49.85818" lon="5.37281">
        <ele>331</ele>
        <time>2018-02-04T12:01:46Z</time>
      </trkpt>
      <trkpt lat="49.85814" lon="5.37278">
        <ele>331</ele>
        <time>2018-02-04T12:01:57Z</time>
      </trkpt>
      <trkpt lat="49.85812" lon="5.37279">
        <ele>331</ele>
        <time>2018-02-04T12:02:07Z</time>
      </trkpt>
      <trkpt lat="49.85812" lon="5.37284">
        <ele>330</ele>
        <time>2018-02-04T12:02:17Z</time>
      </trkpt>
      <trkpt lat="49.85812" lon="5.37284">
        <ele>331</ele>
        <time>2018-02-04T12:02:28Z</time>
      </trkpt>
      <trkpt lat="49.85812" lon="5.37285">
        <ele>330</ele>
        <time>2018-02-04T12:02:40Z</time>
      </trkpt>
      <trkpt lat="49.85817" lon="5.37285">
        <ele>330</ele>
        <time>2018-02-04T12:02:50Z</time>
      </trkpt>
      <trkpt lat="49.85815" lon="5.37288">
        <ele>331</ele>
        <time>2018-02-04T12:03:01Z</time>
      </trkpt>
      <trkpt lat="49.85815" lon="5.37288">
        <ele>331</ele>
        <time>2018-02-04T12:03:11Z</time>
      </trkpt>
      <trkpt lat="49.85815" lon="5.37288">
        <ele>331</ele>
        <time>2018-02-04T12:03:21Z</time>
      </trkpt>
      <trkpt lat="49.85814" lon="5.37287">
        <ele>331</ele>
        <time>2018-02-04T12:03:32Z</time>
      </trkpt>
      <trkpt lat="49.85807" lon="5.3729">
        <ele>331</ele>
        <time>2018-02-04T12:03:42Z</time>
      </trkpt>
      <trkpt lat="49.85807" lon="5.37287">
        <ele>330</ele>
        <time>2018-02-04T12:03:52Z</time>
      </trkpt>
      <trkpt lat="49.85808" lon="5.37287">
        <ele>330</ele>
        <time>2018-02-04T12:04:02Z</time>
      </trkpt>
      <trkpt lat="49.85809" lon="5.37286">
        <ele>331</ele>
        <time>2018-02-04T12:04:12Z</time>
      </trkpt>
      <trkpt lat="49.85813" lon="5.37285">
        <ele>331</ele>
        <time>2018-02-04T12:04:24Z</time>
      </trkpt>
      <trkpt lat="49.85811" lon="5.37287">
        <ele>331</ele>
        <time>2018-02-04T12:04:34Z</time>
      </trkpt>
      <trkpt lat="49.85811" lon="5.37287">
        <ele>331</ele>
        <time>2018-02-04T12:04:44Z</time>
      </trkpt>
      <trkpt lat="49.85813" lon="5.37289">
        <ele>331</ele>
        <time>2018-02-04T12:04:45Z</time>
      </trkpt>
    </trkseg>
  </trk>
</gpx>